UAE1CR OMDB-YMML
Flight info
| Callsign | UAE1CR |
|---|---|
| Flight time | N/A |
| Altitude | 29000 |
| Route | ANVIX7F/30R ANVIX L223 TARDI N629 GIDAN P570 EMURU M300 VASTU P895 AKLON/N0506F310 P895 BIKOK M641 KAT N640 ELATI DCT 07S095E/N0498F330 10S098E DCT SAKAB DCT BIBGA DCT ATLOD/N0485F350 DCT OPALL DCT LST DCT SEEMO DCT ISRED DCT DONBU DCT MTG Y53 ALAXO |
| Aircraft | B77W/H-SDE1E2E3FGHIJ2J3J4J5M1RWXY/LB1D1 |
Departure
| Time | N/A |
|---|---|
| Airport | Dubai International Airport (OMDB) |
Arrival
| Time | 2026-05-08 08:21 |
|---|---|
| Airport | Melbourne Airport (YMML) |
| Time | Latitude | Longitude | Altitude | Speed | Heading |
|---|---|---|---|---|---|
| 2026-05-07 19:47 | 24.63121 | 56.09314 | 19947 ft | 436 kts | 136° |
| 2026-05-07 19:47 | 24.60894 | 56.11590 | 20316 ft | 439 kts | 137° |
| 2026-05-07 19:47 | 24.58658 | 56.13883 | 20675 ft | 441 kts | 136° |
| 2026-05-07 19:48 | 24.56454 | 56.16246 | 21014 ft | 444 kts | 133° |
| 2026-05-07 19:48 | 24.54411 | 56.18803 | 21339 ft | 447 kts | 130° |
| 2026-05-07 19:48 | 24.52395 | 56.21413 | 21680 ft | 450 kts | 130° |
| 2026-05-07 19:48 | 24.50369 | 56.24041 | 22013 ft | 452 kts | 131° |
| 2026-05-07 19:49 | 24.48326 | 56.26678 | 22355 ft | 455 kts | 131° |
| 2026-05-07 19:49 | 24.46264 | 56.29320 | 22659 ft | 457 kts | 131° |
| 2026-05-07 19:49 | 24.44182 | 56.31975 | 22946 ft | 460 kts | 131° |
| 2026-05-07 19:49 | 24.42084 | 56.34642 | 23223 ft | 463 kts | 131° |
| 2026-05-07 19:50 | 24.39971 | 56.37324 | 23485 ft | 466 kts | 131° |
| 2026-05-07 19:50 | 24.37847 | 56.40020 | 23716 ft | 468 kts | 131° |
| 2026-05-07 19:50 | 24.35712 | 56.42729 | 23957 ft | 471 kts | 131° |
| 2026-05-07 19:50 | 24.33598 | 56.45410 | 24216 ft | 472 kts | 131° |
| 2026-05-07 19:51 | 24.31443 | 56.48142 | 24431 ft | 475 kts | 131° |
| 2026-05-07 19:51 | 24.29312 | 56.50922 | 24651 ft | 478 kts | 128° |
| 2026-05-07 19:51 | 24.27334 | 56.53865 | 24884 ft | 480 kts | 127° |
| 2026-05-07 19:51 | 24.25381 | 56.56839 | 25143 ft | 482 kts | 126° |
| 2026-05-07 19:52 | 24.23423 | 56.59823 | 25397 ft | 483 kts | 126° |
| 2026-05-07 19:52 | 24.21451 | 56.62818 | 25620 ft | 486 kts | 127° |
| 2026-05-07 19:52 | 24.19464 | 56.65823 | 25838 ft | 488 kts | 127° |
| 2026-05-07 19:52 | 24.17462 | 56.68839 | 26058 ft | 491 kts | 127° |
| 2026-05-07 19:53 | 24.15450 | 56.71864 | 26285 ft | 493 kts | 127° |
| 2026-05-07 19:53 | 24.13427 | 56.74903 | 26506 ft | 494 kts | 127° |
| 2026-05-07 19:53 | 24.11396 | 56.77952 | 26726 ft | 497 kts | 127° |
| 2026-05-07 19:53 | 24.09359 | 56.81010 | 26940 ft | 499 kts | 127° |
| 2026-05-07 19:54 | 24.07310 | 56.84085 | 27155 ft | 501 kts | 127° |
| 2026-05-07 19:54 | 24.05255 | 56.87167 | 27343 ft | 503 kts | 127° |
| 2026-05-07 19:54 | 24.03186 | 56.90264 | 27549 ft | 505 kts | 127° |
| 2026-05-07 19:54 | 24.01106 | 56.93363 | 27750 ft | 506 kts | 127° |
| 2026-05-07 19:55 | 23.99015 | 56.96469 | 27941 ft | 508 kts | 127° |
| 2026-05-07 19:55 | 23.96915 | 56.99589 | 28140 ft | 510 kts | 127° |
| 2026-05-07 19:55 | 23.94809 | 57.02717 | 28323 ft | 512 kts | 127° |
| 2026-05-07 19:55 | 23.92697 | 57.05854 | 28480 ft | 513 kts | 127° |
| 2026-05-07 19:56 | 23.90578 | 57.09001 | 28676 ft | 515 kts | 127° |
| 2026-05-07 19:56 | 23.88452 | 57.12155 | 28842 ft | 516 kts | 127° |
| 2026-05-07 19:56 | 23.86324 | 57.15317 | 29050 ft | 516 kts | 127° |
| 2026-05-07 19:56 | 23.84202 | 57.18474 | 29321 ft | 515 kts | 127° |
| 2026-05-07 19:57 | 23.82082 | 57.21628 | 29602 ft | 514 kts | 127° |
| 2026-05-07 19:57 | 23.79966 | 57.24774 | 29828 ft | 515 kts | 127° |
| 2026-05-07 19:57 | 23.77843 | 57.27927 | 30020 ft | 515 kts | 128° |
| 2026-05-07 19:57 | 23.75725 | 57.31072 | 30235 ft | 514 kts | 128° |
| 2026-05-07 19:58 | 23.73609 | 57.34209 | 30498 ft | 512 kts | 128° |
| 2026-05-07 19:58 | 23.71496 | 57.37334 | 30707 ft | 512 kts | 128° |
| 2026-05-07 19:58 | 23.67092 | 57.43470 | 30778 ft | 514 kts | 130° |
| 2026-05-07 19:59 | 23.62597 | 57.49569 | 30806 ft | 517 kts | 130° |
| 2026-05-07 19:59 | 23.58103 | 57.55728 | 30838 ft | 521 kts | 129° |
| 2026-05-07 20:00 | 23.53596 | 57.61940 | 30825 ft | 524 kts | 129° |
| 2026-05-07 20:00 | 23.49062 | 57.68176 | 30858 ft | 526 kts | 130° |
| 2026-05-07 20:01 | 23.44525 | 57.74379 | 30837 ft | 528 kts | 130° |
| 2026-05-07 20:01 | 23.39940 | 57.80624 | 30861 ft | 528 kts | 130° |
| 2026-05-07 20:02 | 23.35358 | 57.86865 | 30844 ft | 527 kts | 130° |
| 2026-05-07 20:02 | 23.30786 | 57.93089 | 30825 ft | 526 kts | 130° |
| 2026-05-07 20:03 | 23.26229 | 57.99286 | 30841 ft | 524 kts | 130° |
| 2026-05-07 20:03 | 23.21912 | 58.05648 | 30853 ft | 523 kts | 126° |
| 2026-05-07 20:04 | 23.17835 | 58.12192 | 30849 ft | 523 kts | 125° |
| 2026-05-07 20:04 | 23.13741 | 58.18723 | 30852 ft | 523 kts | 126° |
| 2026-05-07 20:05 | 23.09616 | 58.25251 | 30849 ft | 524 kts | 126° |
| 2026-05-07 20:05 | 23.05480 | 58.31785 | 30861 ft | 525 kts | 126° |
| 2026-05-07 20:06 | 23.00680 | 58.37714 | 30859 ft | 522 kts | 140° |
| 2026-05-07 20:06 | 22.94854 | 58.42370 | 30862 ft | 519 kts | 151° |
| 2026-05-07 20:07 | 22.88642 | 58.46370 | 30869 ft | 520 kts | 151° |
| 2026-05-07 20:07 | 22.82438 | 58.50417 | 30855 ft | 521 kts | 150° |
| 2026-05-07 20:08 | 22.76250 | 58.54513 | 30861 ft | 521 kts | 150° |
| 2026-05-07 20:08 | 22.70065 | 58.58609 | 30859 ft | 521 kts | 150° |
| 2026-05-07 20:09 | 22.63874 | 58.62696 | 30856 ft | 521 kts | 150° |
| 2026-05-07 20:10 | 22.54591 | 58.68819 | 30854 ft | 520 kts | 150° |
| 2026-05-07 20:10 | 22.48417 | 58.72888 | 30858 ft | 520 kts | 150° |
| 2026-05-07 20:11 | 22.42286 | 58.76925 | 30855 ft | 519 kts | 150° |
| 2026-05-07 20:11 | 22.36121 | 58.80979 | 30858 ft | 519 kts | 150° |
| 2026-05-07 20:12 | 22.29957 | 58.85030 | 30856 ft | 518 kts | 150° |
| 2026-05-07 20:12 | 22.24015 | 58.89444 | 30850 ft | 520 kts | 141° |
| 2026-05-07 20:13 | 22.18867 | 58.94943 | 30845 ft | 523 kts | 131° |
| 2026-05-07 20:13 | 22.14257 | 59.01010 | 30851 ft | 523 kts | 130° |
| 2026-05-07 20:14 | 22.09639 | 59.07078 | 30836 ft | 524 kts | 131° |
| 2026-05-07 20:14 | 22.04982 | 59.13125 | 30832 ft | 524 kts | 131° |
| 2026-05-07 20:15 | 22.00307 | 59.19160 | 30824 ft | 525 kts | 131° |
| 2026-05-07 20:15 | 21.95621 | 59.25200 | 30823 ft | 525 kts | 131° |
| 2026-05-07 20:16 | 21.90934 | 59.31239 | 30820 ft | 526 kts | 131° |
| 2026-05-07 20:16 | 21.86241 | 59.37281 | 30817 ft | 526 kts | 131° |
| 2026-05-07 20:17 | 21.81547 | 59.43319 | 30802 ft | 526 kts | 131° |
| 2026-05-07 20:17 | 21.76855 | 59.49347 | 30791 ft | 525 kts | 131° |
| 2026-05-07 20:18 | 21.72165 | 59.55364 | 30794 ft | 524 kts | 131° |
| 2026-05-07 20:18 | 21.67478 | 59.61373 | 30790 ft | 524 kts | 131° |
| 2026-05-07 20:19 | 21.62791 | 59.67373 | 30789 ft | 524 kts | 131° |
| 2026-05-07 20:19 | 21.58104 | 59.73370 | 30796 ft | 524 kts | 131° |
| 2026-05-07 20:20 | 21.53404 | 59.79368 | 30799 ft | 525 kts | 131° |
| 2026-05-07 20:20 | 21.48684 | 59.85357 | 30796 ft | 526 kts | 131° |
| 2026-05-07 20:21 | 21.43955 | 59.91352 | 30795 ft | 526 kts | 132° |
| 2026-05-07 20:21 | 21.39255 | 59.97308 | 30799 ft | 526 kts | 132° |
| 2026-05-07 20:22 | 21.34492 | 60.03339 | 30794 ft | 526 kts | 131° |
| 2026-05-07 20:22 | 21.29769 | 60.09315 | 30805 ft | 524 kts | 131° |
| 2026-05-07 20:23 | 21.25082 | 60.15237 | 30801 ft | 525 kts | 132° |
| 2026-05-07 20:23 | 21.20362 | 60.21202 | 30804 ft | 525 kts | 131° |
| 2026-05-07 20:24 | 21.15641 | 60.27177 | 30804 ft | 525 kts | 132° |
| 2026-05-07 20:24 | 21.10914 | 60.33154 | 30812 ft | 526 kts | 132° |
| 2026-05-07 20:25 | 21.06192 | 60.39119 | 30805 ft | 525 kts | 131° |
| 2026-05-07 20:25 | 21.01472 | 60.45073 | 30810 ft | 524 kts | 131° |
| 2026-05-07 20:26 | 20.96753 | 60.51020 | 30810 ft | 524 kts | 131° |
| 2026-05-07 20:26 | 20.92026 | 60.56970 | 30806 ft | 525 kts | 131° |
| 2026-05-07 20:27 | 20.87299 | 60.62914 | 30806 ft | 524 kts | 131° |
| 2026-05-07 20:27 | 20.82572 | 60.68851 | 30806 ft | 524 kts | 132° |
| 2026-05-07 20:28 | 20.77845 | 60.74782 | 30809 ft | 524 kts | 131° |
| 2026-05-07 20:28 | 20.73117 | 60.80709 | 30806 ft | 524 kts | 131° |
| 2026-05-07 20:29 | 20.68383 | 60.86638 | 30810 ft | 524 kts | 132° |
| 2026-05-07 20:29 | 20.63655 | 60.92554 | 30810 ft | 523 kts | 131° |
| 2026-05-07 20:30 | 20.59979 | 60.97667 | 30807 ft | 523 kts | 124° |
| 2026-05-07 20:30 | 20.56104 | 61.04233 | 30809 ft | 523 kts | 123° |
| 2026-05-07 20:31 | 20.52240 | 61.10811 | 30808 ft | 524 kts | 123° |
| 2026-05-07 20:31 | 20.48340 | 61.17373 | 30817 ft | 524 kts | 123° |
| 2026-05-07 20:32 | 20.44420 | 61.23922 | 30808 ft | 523 kts | 123° |
| 2026-05-07 20:32 | 20.40506 | 61.30446 | 30809 ft | 522 kts | 123° |
| 2026-05-07 20:33 | 20.36598 | 61.36956 | 30811 ft | 521 kts | 123° |
| 2026-05-07 20:33 | 20.32696 | 61.43453 | 30812 ft | 520 kts | 123° |
| 2026-05-07 20:34 | 20.28790 | 61.49948 | 30821 ft | 521 kts | 123° |
| 2026-05-07 20:34 | 20.24903 | 61.56405 | 30815 ft | 521 kts | 123° |
| 2026-05-07 20:35 | 20.20986 | 61.62905 | 30816 ft | 521 kts | 123° |
| 2026-05-07 20:35 | 20.17070 | 61.69396 | 30811 ft | 521 kts | 123° |
| 2026-05-07 20:36 | 20.13158 | 61.75873 | 30818 ft | 520 kts | 123° |
| 2026-05-07 20:36 | 20.09249 | 61.82339 | 30814 ft | 519 kts | 123° |
| 2026-05-07 20:37 | 20.05339 | 61.88796 | 30822 ft | 519 kts | 123° |
| 2026-05-07 20:37 | 20.01428 | 61.95252 | 30822 ft | 519 kts | 123° |
| 2026-05-07 20:38 | 19.97517 | 62.01699 | 30817 ft | 518 kts | 123° |
| 2026-05-07 20:38 | 19.93610 | 62.08133 | 30815 ft | 518 kts | 123° |
| 2026-05-07 20:39 | 19.89705 | 62.14556 | 30823 ft | 517 kts | 123° |
| 2026-05-07 20:39 | 19.85800 | 62.20971 | 30819 ft | 517 kts | 123° |
| 2026-05-07 20:40 | 19.81891 | 62.27387 | 30822 ft | 518 kts | 123° |
| 2026-05-07 20:40 | 19.77975 | 62.33809 | 30826 ft | 519 kts | 123° |
| 2026-05-07 20:41 | 19.74046 | 62.40242 | 30824 ft | 520 kts | 123° |
| 2026-05-07 20:41 | 19.70136 | 62.46640 | 30824 ft | 521 kts | 123° |
| 2026-05-07 20:42 | 19.66191 | 62.53087 | 30818 ft | 521 kts | 123° |
| 2026-05-07 20:42 | 19.62242 | 62.59533 | 30816 ft | 521 kts | 123° |
| 2026-05-07 20:43 | 19.58292 | 62.65975 | 30816 ft | 521 kts | 123° |
| 2026-05-07 20:43 | 19.54343 | 62.72409 | 30830 ft | 520 kts | 123° |
| 2026-05-07 20:44 | 19.50402 | 62.78821 | 30822 ft | 519 kts | 123° |
| 2026-05-07 20:44 | 19.46469 | 62.85215 | 30823 ft | 517 kts | 123° |
| 2026-05-07 20:45 | 19.42540 | 62.91596 | 30819 ft | 517 kts | 123° |
| 2026-05-07 20:45 | 19.38603 | 62.97982 | 30831 ft | 518 kts | 123° |
| 2026-05-07 20:46 | 19.34657 | 63.04375 | 30832 ft | 519 kts | 123° |
| 2026-05-07 20:46 | 19.30703 | 63.10777 | 30839 ft | 519 kts | 123° |
| 2026-05-07 20:47 | 19.26745 | 63.17177 | 30834 ft | 519 kts | 123° |
| 2026-05-07 20:47 | 19.22790 | 63.23566 | 30837 ft | 518 kts | 123° |
| 2026-05-07 20:48 | 19.18864 | 63.29902 | 30830 ft | 518 kts | 123° |
| 2026-05-07 20:48 | 19.14917 | 63.36265 | 30833 ft | 517 kts | 123° |
| 2026-05-07 20:49 | 19.10967 | 63.42626 | 30830 ft | 517 kts | 123° |
| 2026-05-07 20:49 | 19.07017 | 63.48982 | 30836 ft | 517 kts | 123° |
| 2026-05-07 20:50 | 19.03064 | 63.55338 | 30839 ft | 517 kts | 123° |
| 2026-05-07 20:50 | 18.99107 | 63.61691 | 30836 ft | 518 kts | 123° |
| 2026-05-07 20:51 | 18.95142 | 63.68048 | 30838 ft | 518 kts | 123° |
| 2026-05-07 20:51 | 18.91178 | 63.74400 | 30845 ft | 518 kts | 123° |
| 2026-05-07 20:52 | 18.87210 | 63.80753 | 30843 ft | 518 kts | 123° |
| 2026-05-07 20:52 | 18.83240 | 63.87105 | 30834 ft | 518 kts | 123° |
| 2026-05-07 20:53 | 18.79270 | 63.93449 | 30839 ft | 518 kts | 123° |
| 2026-05-07 20:53 | 18.75304 | 63.99781 | 30838 ft | 517 kts | 123° |
| 2026-05-07 20:54 | 18.71363 | 64.06066 | 30837 ft | 516 kts | 123° |
| 2026-05-07 20:54 | 18.67398 | 64.12383 | 30840 ft | 517 kts | 123° |
| 2026-05-07 20:55 | 18.63428 | 64.18703 | 30841 ft | 517 kts | 123° |
| 2026-05-07 20:55 | 18.59451 | 64.25027 | 30840 ft | 518 kts | 123° |
| 2026-05-07 20:56 | 18.55467 | 64.31355 | 30852 ft | 518 kts | 123° |
| 2026-05-07 20:56 | 18.51483 | 64.37679 | 30842 ft | 518 kts | 123° |
| 2026-05-07 20:57 | 18.47494 | 64.44002 | 30846 ft | 518 kts | 123° |
| 2026-05-07 20:57 | 18.43503 | 64.50323 | 30840 ft | 518 kts | 123° |
| 2026-05-07 20:58 | 18.39512 | 64.56639 | 30845 ft | 518 kts | 123° |
| 2026-05-07 20:58 | 18.35515 | 64.62956 | 30842 ft | 518 kts | 124° |
| 2026-05-07 20:59 | 18.31520 | 64.69265 | 30848 ft | 518 kts | 123° |
| 2026-05-07 20:59 | 18.27525 | 64.75568 | 30843 ft | 517 kts | 124° |
| 2026-05-07 21:00 | 18.23534 | 64.81858 | 30844 ft | 517 kts | 124° |
| 2026-05-07 21:00 | 18.19545 | 64.88139 | 30843 ft | 516 kts | 124° |
| 2026-05-07 21:01 | 18.15553 | 64.94417 | 30848 ft | 516 kts | 124° |
| 2026-05-07 21:01 | 18.11561 | 65.00692 | 30843 ft | 517 kts | 124° |
| 2026-05-07 21:02 | 18.07592 | 65.06923 | 30844 ft | 517 kts | 124° |
| 2026-05-07 21:02 | 18.03592 | 65.13197 | 30843 ft | 516 kts | 124° |
| 2026-05-07 21:03 | 17.99596 | 65.19459 | 30841 ft | 516 kts | 124° |
| 2026-05-07 21:03 | 17.95600 | 65.25714 | 30846 ft | 515 kts | 124° |
| 2026-05-07 21:04 | 17.91606 | 65.31961 | 30846 ft | 515 kts | 124° |
| 2026-05-07 21:04 | 17.87610 | 65.38204 | 30847 ft | 515 kts | 124° |
| 2026-05-07 21:05 | 17.83615 | 65.44441 | 30849 ft | 515 kts | 124° |
| 2026-05-07 21:05 | 17.79615 | 65.50680 | 30852 ft | 515 kts | 124° |
| 2026-05-07 21:06 | 17.75616 | 65.56910 | 30851 ft | 515 kts | 124° |
| 2026-05-07 21:06 | 17.71617 | 65.63137 | 30846 ft | 515 kts | 124° |
| 2026-05-07 21:07 | 17.67617 | 65.69358 | 30847 ft | 514 kts | 124° |
| 2026-05-07 21:07 | 17.63616 | 65.75578 | 30847 ft | 514 kts | 124° |
| 2026-05-07 21:08 | 17.59640 | 65.81812 | 30847 ft | 514 kts | 123° |
| 2026-05-07 21:08 | 17.55764 | 65.88110 | 30850 ft | 514 kts | 123° |
| 2026-05-07 21:09 | 17.51904 | 65.94420 | 30850 ft | 514 kts | 123° |
| 2026-05-07 21:09 | 17.48035 | 66.00710 | 30851 ft | 513 kts | 123° |
| 2026-05-07 21:10 | 17.44156 | 66.06986 | 30851 ft | 513 kts | 123° |
| 2026-05-07 21:10 | 17.40283 | 66.13244 | 30850 ft | 512 kts | 123° |
| 2026-05-07 21:11 | 17.36402 | 66.19509 | 30854 ft | 512 kts | 123° |
| 2026-05-07 21:11 | 17.30585 | 66.28891 | 30851 ft | 512 kts | 123° |
| 2026-05-07 21:12 | 17.26702 | 66.35147 | 30854 ft | 513 kts | 123° |
| 2026-05-07 21:12 | 17.22813 | 66.41408 | 30852 ft | 513 kts | 123° |
| 2026-05-07 21:13 | 17.18920 | 66.47668 | 30852 ft | 514 kts | 123° |
| 2026-05-07 21:13 | 17.15023 | 66.53929 | 30849 ft | 514 kts | 123° |
| 2026-05-07 21:14 | 17.11122 | 66.60191 | 30847 ft | 514 kts | 123° |
| 2026-05-07 21:14 | 17.07218 | 66.66453 | 30848 ft | 514 kts | 123° |
| 2026-05-07 21:15 | 17.03306 | 66.72721 | 30849 ft | 515 kts | 123° |
| 2026-05-07 21:15 | 16.99395 | 66.78982 | 30846 ft | 514 kts | 123° |
| 2026-05-07 21:16 | 16.95484 | 66.85236 | 30846 ft | 514 kts | 123° |
| 2026-05-07 21:16 | 16.91603 | 66.91439 | 30846 ft | 513 kts | 123° |
| 2026-05-07 21:17 | 16.87699 | 66.97672 | 30845 ft | 513 kts | 123° |
| 2026-05-07 21:17 | 16.83794 | 67.03900 | 30847 ft | 513 kts | 123° |
| 2026-05-07 21:18 | 16.79888 | 67.10125 | 30846 ft | 512 kts | 123° |
| 2026-05-07 21:18 | 16.75981 | 67.16347 | 30845 ft | 512 kts | 123° |
| 2026-05-07 21:19 | 16.72075 | 67.22560 | 30845 ft | 512 kts | 123° |
| 2026-05-07 21:19 | 16.68829 | 67.27720 | 30844 ft | 511 kts | 123° |
| 2026-05-07 21:20 | 16.64926 | 67.33919 | 30843 ft | 511 kts | 124° |
| 2026-05-07 21:20 | 16.61025 | 67.40110 | 30846 ft | 511 kts | 123° |
| 2026-05-07 21:21 | 16.57122 | 67.46298 | 30841 ft | 511 kts | 124° |
| 2026-05-07 21:21 | 16.53218 | 67.52483 | 30843 ft | 511 kts | 123° |
| 2026-05-07 21:22 | 16.49308 | 67.58671 | 30839 ft | 511 kts | 124° |
| 2026-05-07 21:22 | 16.45397 | 67.64856 | 30847 ft | 511 kts | 123° |
| 2026-05-07 21:23 | 16.41485 | 67.71037 | 30839 ft | 511 kts | 124° |
| 2026-05-07 21:23 | 16.37578 | 67.77206 | 30842 ft | 510 kts | 123° |
| 2026-05-07 21:24 | 16.33674 | 67.83364 | 30838 ft | 509 kts | 124° |
| 2026-05-07 21:24 | 16.29771 | 67.89518 | 30842 ft | 509 kts | 123° |
| 2026-05-07 21:25 | 16.25866 | 67.95670 | 30841 ft | 509 kts | 124° |
| 2026-05-07 21:25 | 16.21981 | 68.01837 | 30843 ft | 510 kts | 123° |
| 2026-05-07 21:26 | 16.18103 | 68.08010 | 30841 ft | 509 kts | 123° |
| 2026-05-07 21:26 | 16.14223 | 68.14178 | 30839 ft | 509 kts | 123° |
| 2026-05-07 21:27 | 16.10371 | 68.20291 | 30830 ft | 508 kts | 124° |
| 2026-05-07 21:27 | 16.06494 | 68.26435 | 30835 ft | 508 kts | 123° |
| 2026-05-07 21:28 | 16.02620 | 68.32573 | 30835 ft | 508 kts | 123° |
| 2026-05-07 21:28 | 15.98741 | 68.38710 | 30835 ft | 508 kts | 123° |
| 2026-05-07 21:29 | 15.94858 | 68.44850 | 30832 ft | 508 kts | 123° |
| 2026-05-07 21:29 | 15.90970 | 68.50992 | 30839 ft | 509 kts | 123° |
| 2026-05-07 21:30 | 15.87084 | 68.57128 | 30835 ft | 508 kts | 124° |
| 2026-05-07 21:30 | 15.83198 | 68.63256 | 30831 ft | 508 kts | 124° |
| 2026-05-07 21:31 | 15.79315 | 68.69377 | 30827 ft | 508 kts | 124° |
| 2026-05-07 21:31 | 15.75428 | 68.75497 | 30828 ft | 508 kts | 123° |
| 2026-05-07 21:32 | 15.71536 | 68.81621 | 30827 ft | 508 kts | 123° |
| 2026-05-07 21:32 | 15.67641 | 68.87744 | 30826 ft | 509 kts | 123° |
| 2026-05-07 21:33 | 15.63739 | 68.93873 | 30823 ft | 509 kts | 124° |
| 2026-05-07 21:33 | 15.59834 | 69.00003 | 30827 ft | 510 kts | 124° |
| 2026-05-07 21:34 | 15.55921 | 69.06138 | 30823 ft | 510 kts | 124° |
| 2026-05-07 21:34 | 15.52004 | 69.12276 | 30826 ft | 510 kts | 124° |
| 2026-05-07 21:35 | 15.48089 | 69.18407 | 30822 ft | 510 kts | 124° |
| 2026-05-07 21:35 | 15.44168 | 69.24540 | 30820 ft | 510 kts | 124° |
| 2026-05-07 21:36 | 15.40248 | 69.30669 | 30818 ft | 510 kts | 124° |
| 2026-05-07 21:36 | 15.36324 | 69.36798 | 30820 ft | 510 kts | 124° |
| 2026-05-07 21:37 | 15.32426 | 69.42882 | 30815 ft | 510 kts | 124° |
| 2026-05-07 21:37 | 15.28498 | 69.49007 | 30815 ft | 511 kts | 124° |
| 2026-05-07 21:38 | 15.24542 | 69.55172 | 30818 ft | 511 kts | 124° |
| 2026-05-07 21:38 | 15.20628 | 69.61267 | 30819 ft | 512 kts | 124° |
| 2026-05-07 21:39 | 15.16683 | 69.67406 | 30813 ft | 512 kts | 124° |
| 2026-05-07 21:39 | 15.12734 | 69.73547 | 30815 ft | 513 kts | 124° |
| 2026-05-07 21:40 | 15.08797 | 69.79696 | 30809 ft | 513 kts | 123° |
| 2026-05-07 21:40 | 15.04886 | 69.85865 | 30813 ft | 512 kts | 123° |
| 2026-05-07 21:41 | 15.00980 | 69.92025 | 30809 ft | 512 kts | 123° |
| 2026-05-07 21:41 | 14.97071 | 69.98177 | 30809 ft | 512 kts | 123° |
| 2026-05-07 21:42 | 14.93159 | 70.04323 | 30804 ft | 511 kts | 123° |
| 2026-05-07 21:42 | 14.89247 | 70.10465 | 30807 ft | 511 kts | 123° |
| 2026-05-07 21:43 | 14.85336 | 70.16600 | 30801 ft | 511 kts | 123° |
| 2026-05-07 21:43 | 14.81419 | 70.22740 | 30801 ft | 511 kts | 123° |
| 2026-05-07 21:44 | 14.77502 | 70.28875 | 30800 ft | 512 kts | 123° |
| 2026-05-07 21:44 | 14.73579 | 70.35014 | 30799 ft | 512 kts | 123° |
| 2026-05-07 21:45 | 14.69660 | 70.41143 | 30797 ft | 511 kts | 123° |
| 2026-05-07 21:45 | 14.65767 | 70.47228 | 30798 ft | 511 kts | 123° |
| 2026-05-07 21:46 | 14.61849 | 70.53346 | 30795 ft | 511 kts | 123° |
| 2026-05-07 21:46 | 14.57929 | 70.59463 | 30796 ft | 511 kts | 123° |
| 2026-05-07 21:47 | 14.54006 | 70.65579 | 30796 ft | 511 kts | 123° |
| 2026-05-07 21:47 | 14.50079 | 70.71698 | 30793 ft | 511 kts | 123° |
| 2026-05-07 21:48 | 14.46149 | 70.77817 | 30792 ft | 512 kts | 123° |
| 2026-05-07 21:48 | 14.42217 | 70.83935 | 30791 ft | 512 kts | 123° |
| 2026-05-07 21:49 | 14.38283 | 70.90053 | 30794 ft | 512 kts | 123° |
| 2026-05-07 21:49 | 14.34348 | 70.96169 | 30796 ft | 512 kts | 123° |
| 2026-05-07 21:50 | 14.30456 | 71.02310 | 30793 ft | 512 kts | 123° |
| 2026-05-07 21:50 | 14.26583 | 71.08466 | 30792 ft | 512 kts | 123° |
| 2026-05-07 21:51 | 14.22703 | 71.14616 | 30789 ft | 512 kts | 123° |
| 2026-05-07 21:51 | 14.18815 | 71.20764 | 30789 ft | 512 kts | 123° |
| 2026-05-07 21:52 | 14.14927 | 71.26904 | 30793 ft | 512 kts | 123° |
| 2026-05-07 21:52 | 14.11037 | 71.33044 | 30789 ft | 511 kts | 123° |
| 2026-05-07 21:53 | 14.07149 | 71.39176 | 30790 ft | 511 kts | 123° |
| 2026-05-07 21:53 | 14.03262 | 71.45302 | 30788 ft | 511 kts | 123° |
| 2026-05-07 21:54 | 13.99374 | 71.51426 | 30790 ft | 511 kts | 123° |
| 2026-05-07 21:54 | 13.95482 | 71.57551 | 30787 ft | 511 kts | 123° |
| 2026-05-07 21:55 | 13.91589 | 71.63674 | 30795 ft | 511 kts | 123° |
| 2026-05-07 21:55 | 13.87693 | 71.69795 | 30791 ft | 511 kts | 123° |
| 2026-05-07 21:56 | 13.83797 | 71.75915 | 30790 ft | 511 kts | 123° |
| 2026-05-07 21:56 | 13.79896 | 71.82036 | 30788 ft | 512 kts | 123° |
| 2026-05-07 21:57 | 13.76020 | 71.88114 | 30788 ft | 512 kts | 123° |
| 2026-05-07 21:57 | 13.72116 | 71.94236 | 30784 ft | 512 kts | 123° |
| 2026-05-07 21:58 | 13.68180 | 72.00336 | 30784 ft | 512 kts | 126° |
| 2026-05-07 21:58 | 13.63742 | 72.06052 | 30787 ft | 512 kts | 129° |
| 2026-05-07 21:59 | 13.59213 | 72.11699 | 30785 ft | 512 kts | 129° |
| 2026-05-07 21:59 | 13.54697 | 72.17364 | 30775 ft | 512 kts | 129° |
| 2026-05-07 22:00 | 13.50195 | 72.23049 | 30779 ft | 513 kts | 129° |
| 2026-05-07 22:00 | 13.45696 | 72.28738 | 30780 ft | 513 kts | 129° |
| 2026-05-07 22:01 | 13.41192 | 72.34431 | 30777 ft | 514 kts | 129° |
| 2026-05-07 22:01 | 13.36682 | 72.40122 | 30777 ft | 514 kts | 129° |
| 2026-05-07 22:02 | 13.32171 | 72.45811 | 30774 ft | 514 kts | 129° |
| 2026-05-07 22:02 | 13.27661 | 72.51494 | 30776 ft | 513 kts | 129° |
| 2026-05-07 22:03 | 13.23150 | 72.57176 | 30777 ft | 513 kts | 129° |
| 2026-05-07 22:03 | 13.18670 | 72.62815 | 30772 ft | 513 kts | 129° |
| 2026-05-07 22:04 | 13.14131 | 72.68524 | 30776 ft | 513 kts | 129° |
| 2026-05-07 22:04 | 13.09651 | 72.74156 | 30774 ft | 513 kts | 129° |
| 2026-05-07 22:05 | 13.05108 | 72.79863 | 30777 ft | 513 kts | 129° |
| 2026-05-07 22:05 | 13.00596 | 72.85526 | 30773 ft | 513 kts | 129° |
| 2026-05-07 22:06 | 12.96113 | 72.91151 | 30776 ft | 513 kts | 129° |
| 2026-05-07 22:06 | 12.91597 | 72.96813 | 30777 ft | 512 kts | 129° |
| 2026-05-07 22:07 | 12.87090 | 73.02461 | 30773 ft | 511 kts | 129° |
| 2026-05-07 22:07 | 12.82593 | 73.08092 | 30775 ft | 510 kts | 129° |
| 2026-05-07 22:08 | 12.78863 | 73.12761 | 30778 ft | 509 kts | 129° |
| 2026-05-07 22:08 | 12.74379 | 73.18369 | 30772 ft | 509 kts | 129° |
| 2026-05-07 22:09 | 12.69890 | 73.23981 | 30770 ft | 509 kts | 129° |
| 2026-05-07 22:09 | 12.65396 | 73.29594 | 30769 ft | 510 kts | 129° |
| 2026-05-07 22:10 | 12.60896 | 73.35213 | 30774 ft | 510 kts | 129° |
| 2026-05-07 22:10 | 12.56399 | 73.40824 | 30773 ft | 510 kts | 129° |
| 2026-05-07 22:11 | 12.51900 | 73.46434 | 30764 ft | 510 kts | 129° |
| 2026-05-07 22:11 | 12.47401 | 73.52040 | 30765 ft | 509 kts | 129° |
| 2026-05-07 22:12 | 12.42907 | 73.57638 | 30770 ft | 509 kts | 129° |
| 2026-05-07 22:12 | 12.38407 | 73.63239 | 30768 ft | 510 kts | 129° |
| 2026-05-07 22:13 | 12.33904 | 73.68840 | 30769 ft | 510 kts | 129° |
| 2026-05-07 22:13 | 12.29391 | 73.74452 | 30767 ft | 511 kts | 129° |
| 2026-05-07 22:14 | 12.24870 | 73.80069 | 30771 ft | 512 kts | 129° |
| 2026-05-07 22:14 | 12.20337 | 73.85698 | 30770 ft | 513 kts | 129° |
| 2026-05-07 22:15 | 12.15799 | 73.91330 | 30769 ft | 513 kts | 129° |
| 2026-05-07 22:15 | 12.11288 | 73.96925 | 30770 ft | 513 kts | 129° |
| 2026-05-07 22:16 | 12.06747 | 74.02553 | 30770 ft | 513 kts | 129° |
| 2026-05-07 22:16 | 12.02209 | 74.08176 | 30774 ft | 513 kts | 129° |
| 2026-05-07 22:17 | 11.97671 | 74.13794 | 30768 ft | 512 kts | 129° |
| 2026-05-07 22:17 | 11.93140 | 74.19402 | 30771 ft | 512 kts | 129° |
| 2026-05-07 22:18 | 11.86346 | 74.27802 | 30770 ft | 511 kts | 130° |
| 2026-05-07 22:19 | 11.81819 | 74.33396 | 30770 ft | 511 kts | 130° |
| 2026-05-07 22:19 | 11.77295 | 74.38982 | 30775 ft | 510 kts | 130° |
| 2026-05-07 22:20 | 11.72786 | 74.44547 | 30763 ft | 508 kts | 130° |
| 2026-05-07 22:20 | 11.68289 | 74.50095 | 30767 ft | 507 kts | 130° |
| 2026-05-07 22:21 | 11.63798 | 74.55631 | 30772 ft | 507 kts | 130° |
| 2026-05-07 22:21 | 11.59302 | 74.61172 | 30768 ft | 508 kts | 130° |
| 2026-05-07 22:22 | 11.54790 | 74.66728 | 30773 ft | 509 kts | 130° |
| 2026-05-07 22:22 | 11.50265 | 74.72297 | 30768 ft | 511 kts | 130° |
| 2026-05-07 22:23 | 11.45730 | 74.77877 | 30769 ft | 511 kts | 130° |
| 2026-05-07 22:23 | 11.41193 | 74.83456 | 30768 ft | 511 kts | 130° |
| 2026-05-07 22:24 | 11.36659 | 74.89028 | 30768 ft | 510 kts | 130° |
| 2026-05-07 22:24 | 11.32158 | 74.94554 | 30774 ft | 510 kts | 130° |
| 2026-05-07 22:25 | 11.27630 | 75.00108 | 30770 ft | 509 kts | 130° |
| 2026-05-07 22:25 | 11.23106 | 75.05656 | 30769 ft | 509 kts | 130° |
| 2026-05-07 22:26 | 11.18577 | 75.11208 | 30777 ft | 509 kts | 130° |
| 2026-05-07 22:26 | 11.14052 | 75.16753 | 30767 ft | 509 kts | 130° |
| 2026-05-07 22:27 | 11.09525 | 75.22298 | 30779 ft | 509 kts | 130° |
| 2026-05-07 22:27 | 11.04996 | 75.27841 | 30780 ft | 509 kts | 130° |
| 2026-05-07 22:28 | 11.00468 | 75.33382 | 30772 ft | 509 kts | 130° |
| 2026-05-07 22:28 | 10.95938 | 75.38921 | 30790 ft | 509 kts | 130° |
| 2026-05-07 22:29 | 10.91411 | 75.44454 | 30773 ft | 508 kts | 130° |
| 2026-05-07 22:29 | 10.86890 | 75.49976 | 30786 ft | 507 kts | 130° |
| 2026-05-07 22:30 | 10.82379 | 75.55484 | 30785 ft | 507 kts | 130° |
| 2026-05-07 22:30 | 10.77868 | 75.60988 | 30785 ft | 506 kts | 130° |
| 2026-05-07 22:31 | 10.73361 | 75.66484 | 30791 ft | 506 kts | 130° |
| 2026-05-07 22:31 | 10.68852 | 75.71981 | 30791 ft | 506 kts | 130° |
| 2026-05-07 22:32 | 10.64340 | 75.77478 | 30785 ft | 506 kts | 130° |
| 2026-05-07 22:32 | 10.59819 | 75.82984 | 30787 ft | 508 kts | 130° |
| 2026-05-07 22:33 | 10.55282 | 75.88506 | 30795 ft | 510 kts | 130° |
| 2026-05-07 22:33 | 10.50730 | 75.94044 | 30797 ft | 511 kts | 130° |
| 2026-05-07 22:34 | 10.46164 | 75.99596 | 30793 ft | 512 kts | 130° |
| 2026-05-07 22:34 | 10.41593 | 76.05151 | 30790 ft | 513 kts | 130° |
| 2026-05-07 22:35 | 10.37020 | 76.10706 | 30798 ft | 512 kts | 130° |
| 2026-05-07 22:35 | 10.32450 | 76.16254 | 30801 ft | 512 kts | 130° |
| 2026-05-07 22:36 | 10.27917 | 76.21756 | 30801 ft | 511 kts | 130° |
| 2026-05-07 22:36 | 10.23361 | 76.27282 | 30800 ft | 510 kts | 130° |
| 2026-05-07 22:37 | 10.18805 | 76.32808 | 30805 ft | 510 kts | 130° |
| 2026-05-07 22:37 | 10.14247 | 76.38330 | 30803 ft | 510 kts | 130° |
| 2026-05-07 22:38 | 10.09670 | 76.43837 | 30802 ft | 511 kts | 130° |
| 2026-05-07 22:38 | 10.05081 | 76.49344 | 30806 ft | 511 kts | 130° |
| 2026-05-07 22:39 | 10.00496 | 76.54849 | 30815 ft | 511 kts | 130° |
| 2026-05-07 22:39 | 9.95909 | 76.60359 | 30811 ft | 511 kts | 130° |
| 2026-05-07 22:40 | 9.91322 | 76.65866 | 30828 ft | 511 kts | 130° |
| 2026-05-07 22:40 | 9.86732 | 76.71375 | 30838 ft | 511 kts | 130° |
| 2026-05-07 22:41 | 9.82137 | 76.76887 | 30826 ft | 512 kts | 130° |
| 2026-05-07 22:41 | 9.77538 | 76.82400 | 30857 ft | 512 kts | 130° |
| 2026-05-07 22:42 | 9.72936 | 76.87916 | 30850 ft | 513 kts | 131° |
| 2026-05-07 22:42 | 9.68328 | 76.93435 | 30849 ft | 513 kts | 131° |
| 2026-05-07 22:43 | 9.63713 | 76.98959 | 30875 ft | 513 kts | 131° |
| 2026-05-07 22:43 | 9.59097 | 77.04483 | 30869 ft | 514 kts | 131° |
| 2026-05-07 22:44 | 9.54483 | 77.10002 | 30879 ft | 513 kts | 131° |
| 2026-05-07 22:44 | 9.49896 | 77.15485 | 30873 ft | 513 kts | 130° |
| 2026-05-07 22:45 | 9.45281 | 77.21000 | 30876 ft | 513 kts | 131° |
| 2026-05-07 22:45 | 9.40674 | 77.26504 | 30880 ft | 512 kts | 130° |
| 2026-05-07 22:46 | 9.36072 | 77.31999 | 30863 ft | 511 kts | 130° |
| 2026-05-07 22:46 | 9.31480 | 77.37479 | 30866 ft | 510 kts | 130° |
| 2026-05-07 22:47 | 9.26899 | 77.42944 | 30858 ft | 509 kts | 130° |
| 2026-05-07 22:47 | 9.22322 | 77.48402 | 30863 ft | 508 kts | 130° |
| 2026-05-07 22:48 | 9.17744 | 77.53860 | 30842 ft | 509 kts | 130° |
| 2026-05-07 22:48 | 9.13165 | 77.59317 | 30840 ft | 509 kts | 130° |
| 2026-05-07 22:49 | 9.08586 | 77.64775 | 30836 ft | 509 kts | 130° |
| 2026-05-07 22:49 | 9.04010 | 77.70229 | 30829 ft | 508 kts | 130° |
| 2026-05-07 22:50 | 8.99434 | 77.75680 | 30825 ft | 508 kts | 130° |
| 2026-05-07 22:50 | 8.94864 | 77.81123 | 30824 ft | 508 kts | 130° |
| 2026-05-07 22:51 | 8.90293 | 77.86564 | 30819 ft | 507 kts | 130° |
| 2026-05-07 22:51 | 8.85723 | 77.92001 | 30813 ft | 508 kts | 130° |
| 2026-05-07 22:52 | 8.81149 | 77.97439 | 30817 ft | 507 kts | 130° |
| 2026-05-07 22:52 | 8.76579 | 78.02872 | 30809 ft | 507 kts | 130° |
| 2026-05-07 22:53 | 8.72018 | 78.08292 | 30804 ft | 506 kts | 130° |
| 2026-05-07 22:53 | 8.67492 | 78.13668 | 30796 ft | 505 kts | 130° |
| 2026-05-07 22:54 | 8.62938 | 78.19075 | 30800 ft | 505 kts | 130° |
| 2026-05-07 22:54 | 8.58384 | 78.24480 | 30794 ft | 505 kts | 130° |
| 2026-05-07 22:55 | 8.53832 | 78.29880 | 30790 ft | 505 kts | 130° |
| 2026-05-07 22:55 | 8.49279 | 78.35280 | 30789 ft | 505 kts | 130° |
| 2026-05-07 22:56 | 8.44726 | 78.40677 | 30784 ft | 505 kts | 130° |
| 2026-05-07 22:56 | 8.40940 | 78.45164 | 30788 ft | 505 kts | 130° |
| 2026-05-07 22:57 | 8.36386 | 78.50559 | 30784 ft | 505 kts | 130° |
| 2026-05-07 22:57 | 8.31832 | 78.55954 | 30787 ft | 505 kts | 130° |
| 2026-05-07 22:58 | 8.27268 | 78.61337 | 30787 ft | 505 kts | 130° |
| 2026-05-07 22:58 | 8.22584 | 78.66623 | 30787 ft | 505 kts | 131° |
| 2026-05-07 22:59 | 8.17866 | 78.71871 | 30782 ft | 505 kts | 131° |
| 2026-05-07 22:59 | 8.13159 | 78.77133 | 30787 ft | 505 kts | 131° |
| 2026-05-07 23:00 | 8.08463 | 78.82406 | 30786 ft | 505 kts | 131° |
| 2026-05-07 23:00 | 8.03771 | 78.87677 | 30789 ft | 505 kts | 131° |
| 2026-05-07 23:01 | 7.99080 | 78.92944 | 30788 ft | 505 kts | 131° |
| 2026-05-07 23:01 | 7.94386 | 78.98210 | 30786 ft | 505 kts | 131° |
| 2026-05-07 23:02 | 7.89690 | 79.03476 | 30786 ft | 505 kts | 131° |
| 2026-05-07 23:02 | 7.84996 | 79.08739 | 30785 ft | 505 kts | 131° |
| 2026-05-07 23:03 | 7.80299 | 79.14004 | 30785 ft | 505 kts | 131° |
| 2026-05-07 23:03 | 7.75600 | 79.19270 | 30784 ft | 505 kts | 131° |
| 2026-05-07 23:04 | 7.70929 | 79.24501 | 30781 ft | 505 kts | 131° |
| 2026-05-07 23:04 | 7.66260 | 79.29796 | 30781 ft | 505 kts | 131° |
| 2026-05-07 23:05 | 7.61612 | 79.35109 | 30781 ft | 505 kts | 131° |
| 2026-05-07 23:05 | 7.56962 | 79.40418 | 30784 ft | 505 kts | 131° |
| 2026-05-07 23:06 | 7.52307 | 79.45722 | 30779 ft | 505 kts | 131° |
| 2026-05-07 23:06 | 7.47648 | 79.51026 | 30783 ft | 505 kts | 131° |
| 2026-05-07 23:07 | 7.42983 | 79.56333 | 30777 ft | 506 kts | 131° |
| 2026-05-07 23:07 | 7.38311 | 79.61650 | 30785 ft | 507 kts | 131° |
| 2026-05-07 23:08 | 7.33632 | 79.66972 | 30781 ft | 508 kts | 131° |
| 2026-05-07 23:08 | 7.28944 | 79.72302 | 30793 ft | 508 kts | 131° |
| 2026-05-07 23:09 | 7.24251 | 79.77636 | 30803 ft | 509 kts | 131° |
| 2026-05-07 23:09 | 7.19560 | 79.82967 | 30804 ft | 508 kts | 131° |
| 2026-05-07 23:10 | 7.14875 | 79.88290 | 30801 ft | 508 kts | 130° |
| 2026-05-07 23:10 | 7.10202 | 79.93613 | 30801 ft | 507 kts | 131° |
| 2026-05-07 23:11 | 7.05538 | 79.98933 | 30798 ft | 507 kts | 131° |
| 2026-05-07 23:11 | 7.00871 | 80.04254 | 30792 ft | 507 kts | 131° |
| 2026-05-07 23:12 | 6.96200 | 80.09577 | 30792 ft | 507 kts | 131° |
| 2026-05-07 23:12 | 6.91526 | 80.14900 | 30792 ft | 508 kts | 131° |
| 2026-05-07 23:13 | 6.86852 | 80.20221 | 30805 ft | 507 kts | 131° |
| 2026-05-07 23:13 | 6.82178 | 80.25542 | 30804 ft | 507 kts | 131° |
| 2026-05-07 23:14 | 6.77507 | 80.30857 | 30805 ft | 507 kts | 131° |
| 2026-05-07 23:14 | 6.72836 | 80.36170 | 30822 ft | 507 kts | 131° |
| 2026-05-07 23:15 | 6.68165 | 80.41483 | 30819 ft | 507 kts | 131° |
| 2026-05-07 23:15 | 6.63494 | 80.46792 | 30834 ft | 507 kts | 131° |
| 2026-05-07 23:16 | 6.58825 | 80.52099 | 30825 ft | 507 kts | 131° |
| 2026-05-07 23:16 | 6.54157 | 80.57403 | 30829 ft | 506 kts | 131° |
| 2026-05-07 23:17 | 6.49521 | 80.62671 | 30830 ft | 506 kts | 131° |
| 2026-05-07 23:17 | 6.44881 | 80.67997 | 30811 ft | 506 kts | 130° |
| 2026-05-07 23:18 | 6.40309 | 80.73376 | 30812 ft | 506 kts | 130° |
| 2026-05-07 23:18 | 6.35741 | 80.78755 | 30805 ft | 506 kts | 130° |
| 2026-05-07 23:19 | 6.31160 | 80.84125 | 30811 ft | 506 kts | 130° |
| 2026-05-07 23:19 | 6.26573 | 80.89494 | 30801 ft | 506 kts | 130° |
| 2026-05-07 23:20 | 6.21981 | 80.94867 | 30796 ft | 507 kts | 130° |
| 2026-05-07 23:20 | 6.17386 | 81.00246 | 30798 ft | 507 kts | 130° |
| 2026-05-07 23:21 | 6.12785 | 81.05629 | 30792 ft | 508 kts | 130° |
| 2026-05-07 23:21 | 6.08166 | 81.11003 | 30791 ft | 508 kts | 130° |
| 2026-05-07 23:22 | 6.03527 | 81.16355 | 30794 ft | 508 kts | 130° |
| 2026-05-07 23:22 | 5.98886 | 81.21711 | 30794 ft | 508 kts | 130° |
| 2026-05-07 23:23 | 5.94249 | 81.27068 | 30792 ft | 508 kts | 130° |
| 2026-05-07 23:23 | 5.89617 | 81.32420 | 30792 ft | 507 kts | 130° |
| 2026-05-07 23:24 | 5.84988 | 81.37768 | 30792 ft | 507 kts | 130° |
| 2026-05-07 23:24 | 5.80359 | 81.43114 | 30792 ft | 507 kts | 130° |
| 2026-05-07 23:25 | 5.75763 | 81.48421 | 30791 ft | 507 kts | 130° |
| 2026-05-07 23:25 | 5.71135 | 81.53764 | 30792 ft | 507 kts | 130° |
| 2026-05-07 23:26 | 5.66506 | 81.59107 | 30792 ft | 507 kts | 130° |
| 2026-05-07 23:26 | 5.61875 | 81.64450 | 30793 ft | 507 kts | 130° |
| 2026-05-07 23:27 | 5.54963 | 81.72478 | 30791 ft | 507 kts | 130° |
| 2026-05-07 23:27 | 5.50362 | 81.77833 | 30792 ft | 506 kts | 130° |
| 2026-05-07 23:28 | 5.45762 | 81.83182 | 30791 ft | 506 kts | 130° |
| 2026-05-07 23:28 | 5.41160 | 81.88529 | 30792 ft | 506 kts | 130° |
| 2026-05-07 23:29 | 5.36558 | 81.93874 | 30792 ft | 506 kts | 130° |
| 2026-05-07 23:29 | 5.31956 | 81.99217 | 30789 ft | 506 kts | 130° |
| 2026-05-07 23:30 | 5.27355 | 82.04559 | 30791 ft | 506 kts | 130° |
| 2026-05-07 23:30 | 5.22780 | 82.09869 | 30792 ft | 506 kts | 130° |
| 2026-05-07 23:31 | 5.18172 | 82.15216 | 30792 ft | 507 kts | 130° |
| 2026-05-07 23:31 | 5.13563 | 82.20562 | 30792 ft | 507 kts | 130° |
| 2026-05-07 23:32 | 5.08951 | 82.25911 | 30789 ft | 507 kts | 130° |
| 2026-05-07 23:32 | 5.04336 | 82.31262 | 30789 ft | 507 kts | 130° |
| 2026-05-07 23:33 | 4.99721 | 82.36612 | 30792 ft | 507 kts | 130° |
| 2026-05-07 23:33 | 4.95108 | 82.41959 | 30786 ft | 507 kts | 130° |
| 2026-05-07 23:34 | 4.90492 | 82.47307 | 30792 ft | 507 kts | 130° |
| 2026-05-07 23:34 | 4.85877 | 82.52653 | 30792 ft | 507 kts | 130° |
| 2026-05-07 23:35 | 4.81261 | 82.57999 | 30791 ft | 507 kts | 130° |
| 2026-05-07 23:35 | 4.76644 | 82.63346 | 30792 ft | 507 kts | 130° |
| 2026-05-07 23:36 | 4.72024 | 82.68693 | 30793 ft | 507 kts | 130° |
| 2026-05-07 23:36 | 4.67403 | 82.74042 | 30791 ft | 507 kts | 130° |
| 2026-05-07 23:37 | 4.62780 | 82.79391 | 30793 ft | 508 kts | 130° |
| 2026-05-07 23:37 | 4.58157 | 82.84739 | 30796 ft | 508 kts | 130° |
| 2026-05-07 23:38 | 4.53527 | 82.90095 | 30789 ft | 508 kts | 130° |
| 2026-05-07 23:38 | 4.48893 | 82.95454 | 30791 ft | 509 kts | 130° |
| 2026-05-07 23:39 | 4.44285 | 83.00782 | 30793 ft | 509 kts | 130° |
| 2026-05-07 23:39 | 4.39643 | 83.06148 | 30796 ft | 510 kts | 130° |
| 2026-05-07 23:40 | 4.34996 | 83.11517 | 30794 ft | 510 kts | 130° |
| 2026-05-07 23:40 | 4.30352 | 83.16884 | 30796 ft | 510 kts | 130° |
| 2026-05-07 23:41 | 4.25707 | 83.22249 | 30793 ft | 509 kts | 130° |
| 2026-05-07 23:41 | 4.21066 | 83.27609 | 30794 ft | 509 kts | 130° |
| 2026-05-07 23:42 | 4.16428 | 83.32965 | 30793 ft | 509 kts | 130° |
| 2026-05-07 23:42 | 4.11791 | 83.38319 | 30794 ft | 508 kts | 130° |
| 2026-05-07 23:43 | 4.07156 | 83.43668 | 30792 ft | 508 kts | 130° |
| 2026-05-07 23:43 | 4.02521 | 83.49018 | 30792 ft | 508 kts | 130° |
| 2026-05-07 23:44 | 3.97886 | 83.54366 | 30793 ft | 508 kts | 130° |
| 2026-05-07 23:44 | 3.94036 | 83.58807 | 30792 ft | 508 kts | 130° |
| 2026-05-07 23:45 | 3.89403 | 83.64152 | 30791 ft | 508 kts | 130° |
| 2026-05-07 23:45 | 3.84770 | 83.69495 | 30792 ft | 508 kts | 130° |
| 2026-05-07 23:46 | 3.80140 | 83.74834 | 30798 ft | 508 kts | 130° |
| 2026-05-07 23:46 | 3.75509 | 83.80173 | 30794 ft | 508 kts | 130° |
| 2026-05-07 23:47 | 3.70876 | 83.85513 | 30792 ft | 508 kts | 130° |
| 2026-05-07 23:47 | 3.66245 | 83.90851 | 30792 ft | 508 kts | 130° |
| 2026-05-07 23:48 | 3.61614 | 83.96188 | 30791 ft | 508 kts | 130° |
| 2026-05-07 23:48 | 3.56985 | 84.01522 | 30790 ft | 507 kts | 130° |
| 2026-05-07 23:49 | 3.52357 | 84.06848 | 30791 ft | 507 kts | 130° |
| 2026-05-07 23:49 | 3.47651 | 84.12104 | 30794 ft | 507 kts | 131° |
| 2026-05-07 23:50 | 3.42907 | 84.17326 | 30792 ft | 507 kts | 131° |
| 2026-05-07 23:50 | 3.38171 | 84.22552 | 30791 ft | 507 kts | 131° |
| 2026-05-07 23:51 | 3.33478 | 84.27751 | 30798 ft | 507 kts | 131° |
| 2026-05-07 23:51 | 3.28754 | 84.32992 | 30798 ft | 507 kts | 131° |
| 2026-05-07 23:52 | 3.24029 | 84.38231 | 30794 ft | 507 kts | 131° |
| 2026-05-07 23:52 | 3.19306 | 84.43467 | 30795 ft | 507 kts | 131° |
| 2026-05-07 23:53 | 3.14582 | 84.48702 | 30797 ft | 507 kts | 131° |
| 2026-05-07 23:53 | 3.09860 | 84.53934 | 30796 ft | 506 kts | 131° |
| 2026-05-07 23:54 | 3.05139 | 84.59164 | 30797 ft | 506 kts | 131° |
| 2026-05-07 23:54 | 3.00416 | 84.64397 | 30796 ft | 507 kts | 131° |
| 2026-05-07 23:55 | 2.95693 | 84.69628 | 30799 ft | 507 kts | 131° |
| 2026-05-07 23:55 | 2.90968 | 84.74861 | 30793 ft | 507 kts | 131° |
| 2026-05-07 23:56 | 2.86246 | 84.80090 | 30800 ft | 506 kts | 131° |
| 2026-05-07 23:56 | 2.81526 | 84.85315 | 30800 ft | 506 kts | 131° |
| 2026-05-07 23:57 | 2.76809 | 84.90537 | 30800 ft | 506 kts | 131° |
| 2026-05-07 23:57 | 2.72094 | 84.95757 | 30799 ft | 506 kts | 131° |
| 2026-05-07 23:58 | 2.67377 | 85.00976 | 30801 ft | 506 kts | 131° |
| 2026-05-07 23:58 | 2.62661 | 85.06195 | 30799 ft | 506 kts | 131° |
| 2026-05-07 23:59 | 2.57941 | 85.11418 | 30801 ft | 506 kts | 131° |
| 2026-05-07 23:59 | 2.53219 | 85.16642 | 30800 ft | 506 kts | 131° |
| 2026-05-08 00:00 | 2.48528 | 85.21831 | 30802 ft | 506 kts | 131° |
| 2026-05-08 00:00 | 2.43808 | 85.27052 | 30803 ft | 506 kts | 131° |
| 2026-05-08 00:01 | 2.39087 | 85.32274 | 30799 ft | 506 kts | 131° |
| 2026-05-08 00:01 | 2.34369 | 85.37491 | 30800 ft | 506 kts | 131° |
| 2026-05-08 00:02 | 2.29648 | 85.42711 | 30805 ft | 506 kts | 131° |
| 2026-05-08 00:02 | 2.24928 | 85.47929 | 30802 ft | 506 kts | 131° |
| 2026-05-08 00:03 | 2.20206 | 85.53150 | 30803 ft | 506 kts | 131° |
| 2026-05-08 00:03 | 2.15484 | 85.58370 | 30802 ft | 506 kts | 131° |
| 2026-05-08 00:04 | 2.10758 | 85.63592 | 30805 ft | 506 kts | 131° |
| 2026-05-08 00:04 | 2.06034 | 85.68813 | 30806 ft | 506 kts | 131° |
| 2026-05-08 00:05 | 2.01310 | 85.74034 | 30802 ft | 506 kts | 131° |
| 2026-05-08 00:05 | 1.96586 | 85.79254 | 30803 ft | 506 kts | 131° |
| 2026-05-08 00:06 | 1.91861 | 85.84474 | 30803 ft | 506 kts | 131° |
| 2026-05-08 00:06 | 1.87138 | 85.89692 | 30804 ft | 506 kts | 131° |
| 2026-05-08 00:07 | 1.82415 | 85.94910 | 30805 ft | 506 kts | 131° |
| 2026-05-08 00:07 | 1.77694 | 86.00125 | 30805 ft | 506 kts | 131° |
| 2026-05-08 00:08 | 1.72973 | 86.05339 | 30805 ft | 506 kts | 131° |
| 2026-05-08 00:08 | 1.68253 | 86.10553 | 30805 ft | 506 kts | 131° |
| 2026-05-08 00:09 | 1.63564 | 86.15733 | 30806 ft | 506 kts | 131° |
| 2026-05-08 00:09 | 1.58778 | 86.20891 | 30803 ft | 506 kts | 133° |
| 2026-05-08 00:10 | 1.53895 | 86.25962 | 30810 ft | 506 kts | 133° |
| 2026-05-08 00:10 | 1.49005 | 86.31036 | 30810 ft | 506 kts | 133° |
| 2026-05-08 00:11 | 1.44136 | 86.36120 | 30804 ft | 506 kts | 133° |
| 2026-05-08 00:11 | 1.39274 | 86.41210 | 30804 ft | 506 kts | 133° |
| 2026-05-08 00:12 | 1.34416 | 86.46299 | 30809 ft | 506 kts | 133° |
| 2026-05-08 00:12 | 1.29562 | 86.51381 | 30809 ft | 505 kts | 133° |
| 2026-05-08 00:13 | 1.24709 | 86.56460 | 30811 ft | 505 kts | 133° |
| 2026-05-08 00:13 | 1.19853 | 86.61543 | 30814 ft | 505 kts | 133° |
| 2026-05-08 00:14 | 1.14996 | 86.66626 | 30813 ft | 506 kts | 133° |
| 2026-05-08 00:14 | 1.10142 | 86.71706 | 30815 ft | 505 kts | 133° |
| 2026-05-08 00:15 | 1.05288 | 86.76786 | 30816 ft | 505 kts | 133° |
| 2026-05-08 00:15 | 1.00436 | 86.81862 | 30816 ft | 505 kts | 133° |
| 2026-05-08 00:16 | 0.95586 | 86.86937 | 30819 ft | 505 kts | 133° |
| 2026-05-08 00:16 | 0.90739 | 86.92009 | 30818 ft | 505 kts | 133° |
| 2026-05-08 00:17 | 0.85891 | 86.97081 | 30819 ft | 505 kts | 133° |
| 2026-05-08 00:17 | 0.81043 | 87.02154 | 30820 ft | 505 kts | 133° |
| 2026-05-08 00:18 | 0.76196 | 87.07224 | 30822 ft | 505 kts | 133° |
| 2026-05-08 00:18 | 0.71349 | 87.12295 | 30821 ft | 504 kts | 133° |
| 2026-05-08 00:19 | 0.66541 | 87.17326 | 30822 ft | 504 kts | 133° |
| 2026-05-08 00:19 | 0.61699 | 87.22391 | 30821 ft | 504 kts | 133° |
| 2026-05-08 00:20 | 0.56863 | 87.27450 | 30822 ft | 503 kts | 133° |
| 2026-05-08 00:20 | 0.52027 | 87.32511 | 30822 ft | 503 kts | 133° |
| 2026-05-08 00:21 | 0.47195 | 87.37566 | 30820 ft | 503 kts | 133° |
| 2026-05-08 00:21 | 0.42360 | 87.42620 | 30818 ft | 503 kts | 133° |
| 2026-05-08 00:22 | 0.37528 | 87.47670 | 30822 ft | 503 kts | 133° |
| 2026-05-08 00:22 | 0.32699 | 87.52718 | 30822 ft | 502 kts | 133° |
| 2026-05-08 00:23 | 0.27869 | 87.57769 | 30824 ft | 502 kts | 133° |
| 2026-05-08 00:23 | 0.23042 | 87.62816 | 30825 ft | 502 kts | 133° |
| 2026-05-08 00:24 | 0.18212 | 87.67867 | 30825 ft | 503 kts | 133° |
| 2026-05-08 00:24 | 0.13382 | 87.72917 | 30824 ft | 503 kts | 132° |
| 2026-05-08 00:25 | 0.08553 | 87.77966 | 30825 ft | 503 kts | 132° |
| 2026-05-08 00:25 | 0.03723 | 87.83016 | 30825 ft | 503 kts | 132° |
| 2026-05-08 00:26 | -0.01105 | 87.88065 | 30828 ft | 502 kts | 132° |
| 2026-05-08 00:26 | -0.05932 | 87.93111 | 30825 ft | 502 kts | 132° |
| 2026-05-08 00:27 | -0.10718 | 87.98116 | 30828 ft | 501 kts | 132° |
| 2026-05-08 00:27 | -0.15535 | 88.03153 | 30828 ft | 501 kts | 132° |
| 2026-05-08 00:28 | -0.20346 | 88.08183 | 30827 ft | 501 kts | 132° |
| 2026-05-08 00:28 | -0.25158 | 88.13215 | 30827 ft | 501 kts | 132° |
| 2026-05-08 00:29 | -0.29972 | 88.18248 | 30827 ft | 501 kts | 132° |
| 2026-05-08 00:29 | -0.34787 | 88.23284 | 30833 ft | 501 kts | 132° |
| 2026-05-08 00:30 | -0.39606 | 88.28323 | 30836 ft | 501 kts | 132° |
| 2026-05-08 00:30 | -0.44426 | 88.33363 | 30836 ft | 502 kts | 132° |
| 2026-05-08 00:31 | -0.49250 | 88.38408 | 30832 ft | 502 kts | 132° |
| 2026-05-08 00:31 | -0.54076 | 88.43454 | 30833 ft | 502 kts | 132° |
| 2026-05-08 00:32 | -0.58901 | 88.48501 | 30831 ft | 502 kts | 132° |
| 2026-05-08 00:32 | -0.62917 | 88.52700 | 30833 ft | 503 kts | 132° |
| 2026-05-08 00:33 | -0.67748 | 88.57753 | 30836 ft | 503 kts | 132° |
| 2026-05-08 00:33 | -0.72583 | 88.62810 | 30836 ft | 503 kts | 132° |
| 2026-05-08 00:34 | -0.77419 | 88.67868 | 30833 ft | 503 kts | 132° |
| 2026-05-08 00:34 | -0.82257 | 88.72929 | 30833 ft | 504 kts | 132° |
| 2026-05-08 00:35 | -0.87098 | 88.77992 | 30834 ft | 504 kts | 132° |
| 2026-05-08 00:35 | -0.91941 | 88.83059 | 30836 ft | 504 kts | 132° |
| 2026-05-08 00:36 | -0.96785 | 88.88128 | 30835 ft | 504 kts | 132° |
| 2026-05-08 00:36 | -1.01632 | 88.93199 | 30837 ft | 505 kts | 132° |
| 2026-05-08 00:37 | -1.06483 | 88.98272 | 30839 ft | 505 kts | 132° |
| 2026-05-08 00:38 | -1.13760 | 89.05885 | 30840 ft | 505 kts | 132° |
| 2026-05-08 00:38 | -1.18578 | 89.10928 | 30839 ft | 505 kts | 132° |
| 2026-05-08 00:39 | -1.23428 | 89.16004 | 30839 ft | 505 kts | 132° |
| 2026-05-08 00:39 | -1.28277 | 89.21079 | 30839 ft | 505 kts | 132° |
| 2026-05-08 00:40 | -1.33126 | 89.26155 | 30837 ft | 505 kts | 132° |
| 2026-05-08 00:40 | -1.37975 | 89.31231 | 30840 ft | 505 kts | 132° |
| 2026-05-08 00:41 | -1.42822 | 89.36305 | 30842 ft | 505 kts | 132° |
| 2026-05-08 00:41 | -1.47670 | 89.41381 | 30842 ft | 505 kts | 132° |
| 2026-05-08 00:42 | -1.52520 | 89.46459 | 30841 ft | 505 kts | 132° |
| 2026-05-08 00:42 | -1.57370 | 89.51538 | 30845 ft | 505 kts | 132° |
| 2026-05-08 00:43 | -1.62221 | 89.56618 | 30845 ft | 505 kts | 132° |
| 2026-05-08 00:43 | -1.67074 | 89.61701 | 30842 ft | 505 kts | 132° |
| 2026-05-08 00:44 | -1.71926 | 89.66783 | 30845 ft | 505 kts | 132° |
| 2026-05-08 00:44 | -1.76778 | 89.71865 | 30842 ft | 505 kts | 132° |
| 2026-05-08 00:45 | -1.81598 | 89.76914 | 30842 ft | 505 kts | 132° |
| 2026-05-08 00:45 | -1.86483 | 89.82032 | 30848 ft | 505 kts | 132° |
| 2026-05-08 00:46 | -1.91302 | 89.87081 | 30847 ft | 505 kts | 132° |
| 2026-05-08 00:46 | -1.96154 | 89.92168 | 30847 ft | 505 kts | 132° |
| 2026-05-08 00:47 | -2.01009 | 89.97246 | 30850 ft | 506 kts | 133° |
| 2026-05-08 00:47 | -2.05967 | 90.02236 | 30851 ft | 506 kts | 134° |
| 2026-05-08 00:48 | -2.10965 | 90.07182 | 30849 ft | 505 kts | 134° |
| 2026-05-08 00:48 | -2.15954 | 90.12137 | 30850 ft | 505 kts | 134° |
| 2026-05-08 00:49 | -2.20929 | 90.17102 | 30851 ft | 505 kts | 134° |
| 2026-05-08 00:49 | -2.25895 | 90.22068 | 30850 ft | 505 kts | 134° |
| 2026-05-08 00:50 | -2.30861 | 90.27035 | 30853 ft | 505 kts | 134° |
| 2026-05-08 00:50 | -2.35827 | 90.32000 | 30851 ft | 505 kts | 134° |
| 2026-05-08 00:51 | -2.40792 | 90.36965 | 30852 ft | 505 kts | 134° |
| 2026-05-08 00:51 | -2.45757 | 90.41930 | 30853 ft | 505 kts | 134° |
| 2026-05-08 00:52 | -2.50727 | 90.46901 | 30855 ft | 505 kts | 134° |
| 2026-05-08 00:52 | -2.55697 | 90.51872 | 30858 ft | 505 kts | 134° |
| 2026-05-08 00:53 | -2.60667 | 90.56844 | 30858 ft | 506 kts | 134° |
| 2026-05-08 00:53 | -2.65641 | 90.61820 | 30857 ft | 506 kts | 134° |
| 2026-05-08 00:54 | -2.70614 | 90.66796 | 30858 ft | 505 kts | 134° |
| 2026-05-08 00:54 | -2.75582 | 90.71768 | 30855 ft | 505 kts | 134° |
| 2026-05-08 00:55 | -2.80542 | 90.76731 | 30850 ft | 504 kts | 134° |
| 2026-05-08 00:55 | -2.85484 | 90.81678 | 30854 ft | 502 kts | 134° |
| 2026-05-08 00:56 | -2.90411 | 90.86611 | 30851 ft | 500 kts | 134° |
| 2026-05-08 00:56 | -2.95322 | 90.91528 | 30854 ft | 499 kts | 134° |
| 2026-05-08 00:57 | -3.00194 | 90.96407 | 30853 ft | 499 kts | 134° |
| 2026-05-08 00:57 | -3.05099 | 91.01319 | 30853 ft | 499 kts | 134° |
| 2026-05-08 00:58 | -3.10018 | 91.06247 | 30855 ft | 502 kts | 134° |
| 2026-05-08 00:58 | -3.14958 | 91.11197 | 30862 ft | 504 kts | 134° |
| 2026-05-08 00:59 | -3.19925 | 91.16173 | 30851 ft | 506 kts | 135° |
| 2026-05-08 00:59 | -3.24906 | 91.21164 | 30862 ft | 507 kts | 135° |
| 2026-05-08 01:00 | -3.29893 | 91.26162 | 30862 ft | 507 kts | 135° |
| 2026-05-08 01:00 | -3.34877 | 91.31158 | 30868 ft | 507 kts | 135° |
| 2026-05-08 01:01 | -3.39853 | 91.36146 | 30864 ft | 506 kts | 135° |
| 2026-05-08 01:01 | -3.44819 | 91.41126 | 30862 ft | 505 kts | 135° |
| 2026-05-08 01:02 | -3.49780 | 91.46100 | 30861 ft | 504 kts | 135° |
| 2026-05-08 01:02 | -3.54735 | 91.51071 | 30863 ft | 504 kts | 135° |
| 2026-05-08 01:03 | -3.59654 | 91.56005 | 30864 ft | 504 kts | 134° |
| 2026-05-08 01:03 | -3.64611 | 91.60978 | 30868 ft | 505 kts | 134° |
| 2026-05-08 01:04 | -3.69571 | 91.65955 | 30868 ft | 505 kts | 134° |
| 2026-05-08 01:04 | -3.74538 | 91.70940 | 30867 ft | 506 kts | 134° |
| 2026-05-08 01:05 | -3.79509 | 91.75931 | 30863 ft | 506 kts | 134° |
| 2026-05-08 01:05 | -3.84480 | 91.80922 | 30867 ft | 506 kts | 135° |
| 2026-05-08 01:06 | -3.89451 | 91.85913 | 30866 ft | 506 kts | 135° |
| 2026-05-08 01:06 | -3.94419 | 91.90903 | 30863 ft | 506 kts | 135° |
| 2026-05-08 01:07 | -3.99393 | 91.95897 | 30859 ft | 507 kts | 134° |
| 2026-05-08 01:07 | -4.04370 | 92.00899 | 30863 ft | 507 kts | 134° |
| 2026-05-08 01:08 | -4.09358 | 92.05913 | 30863 ft | 508 kts | 134° |
| 2026-05-08 01:08 | -4.14352 | 92.10931 | 30872 ft | 509 kts | 134° |
| 2026-05-08 01:09 | -4.19348 | 92.15954 | 30868 ft | 509 kts | 134° |
| 2026-05-08 01:09 | -4.24344 | 92.20977 | 30867 ft | 508 kts | 134° |
| 2026-05-08 01:10 | -4.29333 | 92.25994 | 30868 ft | 508 kts | 134° |
| 2026-05-08 01:10 | -4.34280 | 92.30970 | 30872 ft | 507 kts | 134° |
| 2026-05-08 01:11 | -4.39252 | 92.35973 | 30869 ft | 506 kts | 134° |
| 2026-05-08 01:11 | -4.44216 | 92.40968 | 30867 ft | 505 kts | 134° |
| 2026-05-08 01:12 | -4.49207 | 92.45991 | 30871 ft | 505 kts | 134° |
| 2026-05-08 01:12 | -4.54128 | 92.50945 | 30865 ft | 505 kts | 134° |
| 2026-05-08 01:13 | -4.59083 | 92.55934 | 30873 ft | 505 kts | 134° |
| 2026-05-08 01:13 | -4.64035 | 92.60921 | 30869 ft | 505 kts | 134° |
| 2026-05-08 01:14 | -4.68989 | 92.65912 | 30866 ft | 505 kts | 134° |
| 2026-05-08 01:14 | -4.73947 | 92.70906 | 30876 ft | 506 kts | 134° |
| 2026-05-08 01:15 | -4.78913 | 92.75911 | 30866 ft | 506 kts | 134° |
| 2026-05-08 01:15 | -4.83875 | 92.80913 | 30871 ft | 506 kts | 134° |
| 2026-05-08 01:16 | -4.88843 | 92.85922 | 30869 ft | 506 kts | 134° |
| 2026-05-08 01:16 | -4.93806 | 92.90926 | 30866 ft | 506 kts | 134° |
| 2026-05-08 01:17 | -4.98766 | 92.95929 | 30868 ft | 505 kts | 134° |
| 2026-05-08 01:17 | -5.03715 | 93.00922 | 30859 ft | 505 kts | 134° |
| 2026-05-08 01:18 | -5.08661 | 93.05913 | 30872 ft | 504 kts | 134° |
| 2026-05-08 01:18 | -5.13613 | 93.10911 | 30864 ft | 505 kts | 134° |
| 2026-05-08 01:19 | -5.18568 | 93.15914 | 30864 ft | 506 kts | 134° |
| 2026-05-08 01:19 | -5.23540 | 93.20934 | 30875 ft | 508 kts | 134° |
| 2026-05-08 01:20 | -5.28522 | 93.25966 | 30869 ft | 508 kts | 134° |
| 2026-05-08 01:20 | -5.33500 | 93.30995 | 30872 ft | 507 kts | 134° |
| 2026-05-08 01:21 | -5.37631 | 93.35171 | 30871 ft | 507 kts | 134° |
| 2026-05-08 01:21 | -5.42598 | 93.40190 | 30892 ft | 506 kts | 134° |
| 2026-05-08 01:22 | -5.47556 | 93.45203 | 30868 ft | 506 kts | 134° |
| 2026-05-08 01:22 | -5.52513 | 93.50216 | 30873 ft | 506 kts | 134° |
| 2026-05-08 01:23 | -5.57468 | 93.55228 | 30865 ft | 506 kts | 134° |
| 2026-05-08 01:23 | -5.62434 | 93.60252 | 30892 ft | 507 kts | 134° |
| 2026-05-08 01:24 | -5.67406 | 93.65284 | 30867 ft | 508 kts | 134° |
| 2026-05-08 01:24 | -5.72380 | 93.70319 | 30889 ft | 508 kts | 135° |
| 2026-05-08 01:25 | -5.77363 | 93.75365 | 30873 ft | 509 kts | 135° |
| 2026-05-08 01:25 | -5.82350 | 93.80415 | 30895 ft | 509 kts | 135° |
| 2026-05-08 01:26 | -5.87335 | 93.85466 | 30869 ft | 509 kts | 135° |
| 2026-05-08 01:26 | -5.92316 | 93.90514 | 30869 ft | 509 kts | 135° |
| 2026-05-08 01:27 | -5.97266 | 93.95530 | 30871 ft | 509 kts | 135° |
| 2026-05-08 01:27 | -6.02236 | 94.00570 | 30872 ft | 507 kts | 135° |
| 2026-05-08 01:28 | -6.07197 | 94.05602 | 30873 ft | 506 kts | 135° |
| 2026-05-08 01:28 | -6.12157 | 94.10634 | 30872 ft | 507 kts | 135° |
| 2026-05-08 01:29 | -6.17129 | 94.15678 | 30871 ft | 509 kts | 135° |
| 2026-05-08 01:29 | -6.22116 | 94.20740 | 30875 ft | 510 kts | 134° |
| 2026-05-08 01:30 | -6.27104 | 94.25805 | 30871 ft | 510 kts | 134° |
| 2026-05-08 01:30 | -6.32096 | 94.30875 | 30875 ft | 510 kts | 134° |
| 2026-05-08 01:31 | -6.37087 | 94.35945 | 30887 ft | 510 kts | 134° |
| 2026-05-08 01:31 | -6.42074 | 94.41014 | 30872 ft | 510 kts | 134° |
| 2026-05-08 01:32 | -6.47054 | 94.46075 | 30872 ft | 509 kts | 134° |
| 2026-05-08 01:32 | -6.52035 | 94.51141 | 30870 ft | 510 kts | 134° |
| 2026-05-08 01:33 | -6.57028 | 94.56220 | 30878 ft | 511 kts | 134° |
| 2026-05-08 01:33 | -6.62034 | 94.61313 | 30888 ft | 513 kts | 134° |
| 2026-05-08 01:34 | -6.67058 | 94.66426 | 30883 ft | 515 kts | 134° |
| 2026-05-08 01:34 | -6.72095 | 94.71555 | 30871 ft | 516 kts | 134° |
| 2026-05-08 01:35 | -6.77111 | 94.76663 | 30888 ft | 516 kts | 134° |
| 2026-05-08 01:35 | -6.82157 | 94.81804 | 30886 ft | 516 kts | 134° |
| 2026-05-08 01:36 | -6.87202 | 94.86946 | 30869 ft | 516 kts | 134° |
| 2026-05-08 01:36 | -6.92236 | 94.92079 | 30874 ft | 515 kts | 134° |
| 2026-05-08 01:37 | -6.97263 | 94.97205 | 30868 ft | 514 kts | 134° |
| 2026-05-08 01:37 | -7.02304 | 95.02322 | 30886 ft | 515 kts | 135° |
| 2026-05-08 01:38 | -7.07420 | 95.07380 | 30887 ft | 516 kts | 135° |
| 2026-05-08 01:38 | -7.12557 | 95.12431 | 30887 ft | 517 kts | 135° |
| 2026-05-08 01:39 | -7.17692 | 95.17499 | 30870 ft | 517 kts | 135° |
| 2026-05-08 01:39 | -7.22826 | 95.22581 | 30887 ft | 518 kts | 135° |
| 2026-05-08 01:40 | -7.27958 | 95.27668 | 30889 ft | 518 kts | 135° |
| 2026-05-08 01:40 | -7.33092 | 95.32757 | 30876 ft | 517 kts | 135° |
| 2026-05-08 01:41 | -7.38223 | 95.37844 | 30887 ft | 518 kts | 134° |
| 2026-05-08 01:41 | -7.43328 | 95.42907 | 30886 ft | 519 kts | 134° |
| 2026-05-08 01:42 | -7.48508 | 95.48045 | 30887 ft | 519 kts | 134° |
| 2026-05-08 01:42 | -7.53620 | 95.53119 | 30885 ft | 519 kts | 134° |
| 2026-05-08 01:43 | -7.58767 | 95.58229 | 30885 ft | 519 kts | 134° |
| 2026-05-08 01:43 | -7.63910 | 95.63337 | 30884 ft | 519 kts | 134° |
| 2026-05-08 01:44 | -7.69048 | 95.68441 | 30886 ft | 518 kts | 135° |
| 2026-05-08 01:44 | -7.74183 | 95.73544 | 30887 ft | 518 kts | 134° |
| 2026-05-08 01:45 | -7.79315 | 95.78646 | 30869 ft | 518 kts | 134° |
| 2026-05-08 01:45 | -7.84453 | 95.83757 | 30890 ft | 519 kts | 134° |
| 2026-05-08 01:46 | -7.89599 | 95.88877 | 30884 ft | 520 kts | 134° |
| 2026-05-08 01:46 | -7.94751 | 95.94005 | 30883 ft | 520 kts | 135° |
| 2026-05-08 01:47 | -7.99903 | 95.99135 | 30882 ft | 520 kts | 134° |
| 2026-05-08 01:47 | -8.05052 | 96.04264 | 30884 ft | 520 kts | 134° |
| 2026-05-08 01:48 | -8.12768 | 96.11952 | 30883 ft | 520 kts | 135° |
| 2026-05-08 01:48 | -8.17909 | 96.17078 | 30885 ft | 519 kts | 135° |
| 2026-05-08 01:49 | -8.23047 | 96.22202 | 30882 ft | 519 kts | 135° |
| 2026-05-08 01:49 | -8.28180 | 96.27324 | 30887 ft | 519 kts | 134° |
| 2026-05-08 01:50 | -8.33319 | 96.32455 | 30887 ft | 520 kts | 134° |
| 2026-05-08 01:50 | -8.38446 | 96.37572 | 30893 ft | 522 kts | 135° |
| 2026-05-08 01:51 | -8.43620 | 96.42742 | 30879 ft | 524 kts | 134° |
| 2026-05-08 01:51 | -8.48810 | 96.47927 | 30892 ft | 524 kts | 135° |
| 2026-05-08 01:52 | -8.53987 | 96.53104 | 30879 ft | 523 kts | 135° |
| 2026-05-08 01:52 | -8.59148 | 96.58265 | 30883 ft | 521 kts | 135° |
| 2026-05-08 01:53 | -8.64289 | 96.63411 | 30884 ft | 520 kts | 134° |
| 2026-05-08 01:53 | -8.69428 | 96.68552 | 30883 ft | 520 kts | 134° |
| 2026-05-08 01:54 | -8.74566 | 96.73699 | 30869 ft | 521 kts | 134° |
| 2026-05-08 01:54 | -8.79722 | 96.78864 | 30894 ft | 523 kts | 134° |
| 2026-05-08 01:55 | -8.84903 | 96.84056 | 30891 ft | 525 kts | 134° |
| 2026-05-08 01:55 | -8.90101 | 96.89268 | 30889 ft | 527 kts | 135° |
| 2026-05-08 01:56 | -8.95312 | 96.94495 | 30891 ft | 528 kts | 135° |
| 2026-05-08 01:56 | -9.00526 | 96.99726 | 30890 ft | 528 kts | 135° |
| 2026-05-08 01:57 | -9.05734 | 97.04954 | 30890 ft | 528 kts | 134° |
| 2026-05-08 01:57 | -9.10942 | 97.10185 | 30894 ft | 527 kts | 134° |
| 2026-05-08 01:58 | -9.16142 | 97.15410 | 30893 ft | 527 kts | 134° |
| 2026-05-08 01:58 | -9.21331 | 97.20625 | 30894 ft | 525 kts | 135° |
| 2026-05-08 01:59 | -9.26470 | 97.25795 | 30896 ft | 524 kts | 134° |
| 2026-05-08 01:59 | -9.31637 | 97.30994 | 30894 ft | 524 kts | 134° |
| 2026-05-08 02:00 | -9.36809 | 97.36197 | 30904 ft | 524 kts | 135° |
| 2026-05-08 02:00 | -9.41976 | 97.41401 | 30897 ft | 524 kts | 134° |
| 2026-05-08 02:01 | -9.47138 | 97.46603 | 30892 ft | 524 kts | 134° |
| 2026-05-08 02:01 | -9.52308 | 97.51814 | 30894 ft | 525 kts | 134° |
| 2026-05-08 02:02 | -9.57489 | 97.57034 | 30902 ft | 525 kts | 134° |
| 2026-05-08 02:02 | -9.62666 | 97.62262 | 30890 ft | 526 kts | 134° |
| 2026-05-08 02:03 | -9.67858 | 97.67501 | 30904 ft | 528 kts | 134° |
| 2026-05-08 02:03 | -9.73067 | 97.72758 | 30904 ft | 529 kts | 134° |
| 2026-05-08 02:04 | -9.78293 | 97.78037 | 30899 ft | 531 kts | 134° |
| 2026-05-08 02:04 | -9.83523 | 97.83324 | 30902 ft | 531 kts | 134° |
| 2026-05-08 02:05 | -9.88757 | 97.88621 | 30902 ft | 532 kts | 134° |
| 2026-05-08 02:05 | -9.93999 | 97.93922 | 30904 ft | 533 kts | 134° |
| 2026-05-08 02:06 | -9.99247 | 97.99235 | 30903 ft | 533 kts | 134° |
| 2026-05-08 02:06 | -10.04391 | 98.04586 | 30916 ft | 533 kts | 133° |
| 2026-05-08 02:07 | -10.09443 | 98.10052 | 30907 ft | 529 kts | 133° |
| 2026-05-08 02:07 | -10.14453 | 98.15486 | 30904 ft | 526 kts | 133° |
| 2026-05-08 02:08 | -10.19478 | 98.20901 | 30910 ft | 528 kts | 133° |
| 2026-05-08 02:08 | -10.24536 | 98.26332 | 30920 ft | 530 kts | 133° |
| 2026-05-08 02:09 | -10.29607 | 98.31781 | 30913 ft | 531 kts | 133° |
| 2026-05-08 02:09 | -10.34681 | 98.37236 | 30912 ft | 531 kts | 133° |
| 2026-05-08 02:10 | -10.39750 | 98.42692 | 30904 ft | 532 kts | 133° |
| 2026-05-08 02:10 | -10.43972 | 98.47235 | 30919 ft | 533 kts | 133° |
| 2026-05-08 02:11 | -10.49063 | 98.52719 | 30915 ft | 534 kts | 133° |
| 2026-05-08 02:11 | -10.54164 | 98.58214 | 30923 ft | 534 kts | 133° |
| 2026-05-08 02:12 | -10.59248 | 98.63696 | 30914 ft | 532 kts | 133° |
| 2026-05-08 02:12 | -10.64316 | 98.69164 | 30909 ft | 531 kts | 133° |
| 2026-05-08 02:13 | -10.69385 | 98.74635 | 30917 ft | 532 kts | 133° |
| 2026-05-08 02:13 | -10.74463 | 98.80117 | 30924 ft | 533 kts | 133° |
| 2026-05-08 02:14 | -10.79540 | 98.85602 | 30921 ft | 533 kts | 133° |
| 2026-05-08 02:14 | -10.84621 | 98.91096 | 30918 ft | 534 kts | 133° |
| 2026-05-08 02:15 | -10.89714 | 98.96603 | 30925 ft | 535 kts | 133° |
| 2026-05-08 02:15 | -10.94812 | 99.02120 | 30924 ft | 536 kts | 133° |
| 2026-05-08 02:16 | -10.99921 | 99.07650 | 30920 ft | 536 kts | 133° |
| 2026-05-08 02:16 | -11.05030 | 99.13186 | 30920 ft | 537 kts | 133° |
| 2026-05-08 02:17 | -11.10137 | 99.18720 | 30926 ft | 535 kts | 133° |
| 2026-05-08 02:17 | -11.15218 | 99.24231 | 30921 ft | 532 kts | 133° |
| 2026-05-08 02:18 | -11.20271 | 99.29715 | 30918 ft | 530 kts | 133° |
| 2026-05-08 02:18 | -11.25312 | 99.35186 | 30924 ft | 529 kts | 133° |
| 2026-05-08 02:19 | -11.30314 | 99.40621 | 30918 ft | 530 kts | 133° |
| 2026-05-08 02:19 | -11.35367 | 99.46110 | 30933 ft | 531 kts | 133° |
| 2026-05-08 02:20 | -11.40432 | 99.51621 | 30924 ft | 534 kts | 133° |
| 2026-05-08 02:20 | -11.45528 | 99.57164 | 30932 ft | 537 kts | 133° |
| 2026-05-08 02:21 | -11.50628 | 99.62715 | 30926 ft | 536 kts | 133° |
| 2026-05-08 02:21 | -11.55723 | 99.68267 | 30923 ft | 536 kts | 133° |
| 2026-05-08 02:22 | -11.60815 | 99.73815 | 30929 ft | 535 kts | 133° |
| 2026-05-08 02:22 | -11.65888 | 99.79347 | 30925 ft | 534 kts | 133° |
| 2026-05-08 02:23 | -11.70955 | 99.84877 | 30926 ft | 532 kts | 133° |
| 2026-05-08 02:23 | -11.76005 | 99.90391 | 30927 ft | 532 kts | 133° |
| 2026-05-08 02:24 | -11.81051 | 99.95904 | 30929 ft | 531 kts | 133° |
| 2026-05-08 02:24 | -11.86094 | 100.01415 | 30929 ft | 531 kts | 133° |
| 2026-05-08 02:25 | -11.91144 | 100.06938 | 30931 ft | 532 kts | 133° |
| 2026-05-08 02:25 | -11.96203 | 100.12475 | 30935 ft | 534 kts | 133° |
| 2026-05-08 02:26 | -12.01272 | 100.18024 | 30932 ft | 535 kts | 133° |
| 2026-05-08 02:26 | -12.06345 | 100.23583 | 30932 ft | 535 kts | 133° |
| 2026-05-08 02:27 | -12.11424 | 100.29151 | 30931 ft | 536 kts | 133° |
| 2026-05-08 02:27 | -12.16505 | 100.34724 | 30935 ft | 536 kts | 133° |
| 2026-05-08 02:28 | -12.21555 | 100.40267 | 30934 ft | 536 kts | 134° |
| 2026-05-08 02:28 | -12.26641 | 100.45853 | 30934 ft | 537 kts | 134° |
| 2026-05-08 02:29 | -12.31724 | 100.51440 | 30935 ft | 537 kts | 134° |
| 2026-05-08 02:29 | -12.36810 | 100.57031 | 30934 ft | 537 kts | 134° |
| 2026-05-08 02:30 | -12.41894 | 100.62626 | 30936 ft | 537 kts | 134° |
| 2026-05-08 02:30 | -12.46977 | 100.68222 | 30938 ft | 537 kts | 134° |
| 2026-05-08 02:31 | -12.52061 | 100.73822 | 30939 ft | 537 kts | 134° |
| 2026-05-08 02:31 | -12.57141 | 100.79423 | 30939 ft | 537 kts | 134° |
| 2026-05-08 02:32 | -12.62224 | 100.85029 | 30936 ft | 537 kts | 134° |
| 2026-05-08 02:32 | -12.67308 | 100.90639 | 30937 ft | 537 kts | 134° |
| 2026-05-08 02:33 | -12.72392 | 100.96254 | 30941 ft | 538 kts | 134° |
| 2026-05-08 02:33 | -12.77477 | 101.01873 | 30939 ft | 538 kts | 134° |
| 2026-05-08 02:34 | -12.82562 | 101.07496 | 30939 ft | 538 kts | 134° |
| 2026-05-08 02:34 | -12.87645 | 101.13121 | 30942 ft | 538 kts | 134° |
| 2026-05-08 02:35 | -12.92726 | 101.18746 | 30946 ft | 538 kts | 134° |
| 2026-05-08 02:35 | -12.97807 | 101.24376 | 30944 ft | 537 kts | 134° |
| 2026-05-08 02:36 | -13.02881 | 101.30001 | 30948 ft | 537 kts | 134° |
| 2026-05-08 02:36 | -13.07919 | 101.35591 | 30944 ft | 537 kts | 134° |
| 2026-05-08 02:37 | -13.12989 | 101.41219 | 30945 ft | 537 kts | 134° |
| 2026-05-08 02:37 | -13.18058 | 101.46849 | 30946 ft | 537 kts | 134° |
| 2026-05-08 02:38 | -13.23123 | 101.52479 | 30947 ft | 537 kts | 134° |
| 2026-05-08 02:38 | -13.28189 | 101.58115 | 30950 ft | 537 kts | 134° |
| 2026-05-08 02:39 | -13.33259 | 101.63757 | 30951 ft | 538 kts | 134° |
| 2026-05-08 02:39 | -13.38330 | 101.69405 | 30956 ft | 538 kts | 134° |
| 2026-05-08 02:40 | -13.43402 | 101.75057 | 30955 ft | 538 kts | 134° |
| 2026-05-08 02:40 | -13.48472 | 101.80711 | 30939 ft | 538 kts | 134° |
| 2026-05-08 02:41 | -13.53543 | 101.86371 | 30958 ft | 538 kts | 134° |
| 2026-05-08 02:41 | -13.58611 | 101.92031 | 30963 ft | 538 kts | 134° |
| 2026-05-08 02:42 | -13.63680 | 101.97696 | 30962 ft | 538 kts | 134° |
| 2026-05-08 02:42 | -13.68749 | 102.03365 | 30947 ft | 538 kts | 134° |
| 2026-05-08 02:43 | -13.73814 | 102.09031 | 30950 ft | 538 kts | 134° |
| 2026-05-08 02:43 | -13.78877 | 102.14702 | 30955 ft | 538 kts | 134° |
| 2026-05-08 02:44 | -13.83939 | 102.20374 | 30968 ft | 538 kts | 134° |
| 2026-05-08 02:44 | -13.88999 | 102.26048 | 30967 ft | 538 kts | 134° |
| 2026-05-08 02:45 | -13.94058 | 102.31726 | 30958 ft | 538 kts | 135° |
| 2026-05-08 02:45 | -13.99118 | 102.37408 | 30965 ft | 539 kts | 135° |
| 2026-05-08 02:46 | -14.04147 | 102.43058 | 30966 ft | 539 kts | 135° |
| 2026-05-08 02:46 | -14.09212 | 102.48754 | 30964 ft | 539 kts | 135° |
| 2026-05-08 02:47 | -14.14277 | 102.54453 | 30963 ft | 539 kts | 135° |
| 2026-05-08 02:47 | -14.19341 | 102.60157 | 30970 ft | 539 kts | 135° |
| 2026-05-08 02:48 | -14.24405 | 102.65864 | 30966 ft | 540 kts | 135° |
| 2026-05-08 02:48 | -14.29468 | 102.71573 | 30971 ft | 539 kts | 135° |
| 2026-05-08 02:49 | -14.34530 | 102.77286 | 30969 ft | 539 kts | 135° |
| 2026-05-08 02:49 | -14.39592 | 102.83003 | 30967 ft | 540 kts | 135° |
| 2026-05-08 02:50 | -14.44655 | 102.88726 | 30967 ft | 540 kts | 135° |
| 2026-05-08 02:50 | -14.49719 | 102.94455 | 30971 ft | 540 kts | 135° |
| 2026-05-08 02:51 | -14.54785 | 103.00185 | 30978 ft | 540 kts | 135° |
| 2026-05-08 02:51 | -14.59859 | 103.05918 | 30976 ft | 541 kts | 135° |
| 2026-05-08 02:52 | -14.64943 | 103.11665 | 30977 ft | 542 kts | 135° |
| 2026-05-08 02:52 | -14.70029 | 103.17423 | 30977 ft | 543 kts | 135° |
| 2026-05-08 02:53 | -14.75120 | 103.23194 | 30978 ft | 544 kts | 135° |
| 2026-05-08 02:53 | -14.80216 | 103.28972 | 30976 ft | 544 kts | 135° |
| 2026-05-08 02:54 | -14.85310 | 103.34753 | 30980 ft | 544 kts | 135° |
| 2026-05-08 02:54 | -14.90401 | 103.40536 | 30982 ft | 544 kts | 135° |
| 2026-05-08 02:55 | -14.98028 | 103.49206 | 30984 ft | 543 kts | 135° |
| 2026-05-08 02:56 | -15.03105 | 103.54983 | 30982 ft | 542 kts | 135° |
| 2026-05-08 02:56 | -15.08179 | 103.60761 | 30980 ft | 542 kts | 135° |
| 2026-05-08 02:57 | -15.13249 | 103.66539 | 30988 ft | 542 kts | 135° |
| 2026-05-08 02:57 | -15.18284 | 103.72281 | 30987 ft | 542 kts | 135° |
| 2026-05-08 02:58 | -15.23351 | 103.78065 | 30999 ft | 542 kts | 135° |
| 2026-05-08 02:58 | -15.28421 | 103.83856 | 30993 ft | 543 kts | 135° |
| 2026-05-08 02:59 | -15.33493 | 103.89654 | 30992 ft | 543 kts | 135° |
| 2026-05-08 02:59 | -15.37743 | 103.94516 | 30992 ft | 543 kts | 135° |
| 2026-05-08 03:00 | -15.42815 | 104.00321 | 30992 ft | 543 kts | 135° |
| 2026-05-08 03:00 | -15.47885 | 104.06130 | 30998 ft | 543 kts | 135° |
| 2026-05-08 03:01 | -15.52953 | 104.11941 | 30996 ft | 543 kts | 135° |
| 2026-05-08 03:01 | -15.57982 | 104.17712 | 30996 ft | 543 kts | 136° |
| 2026-05-08 03:02 | -15.63050 | 104.23532 | 30996 ft | 543 kts | 136° |
| 2026-05-08 03:02 | -15.68113 | 104.29351 | 30994 ft | 543 kts | 136° |
| 2026-05-08 03:03 | -15.73175 | 104.35174 | 30999 ft | 543 kts | 136° |
| 2026-05-08 03:03 | -15.78240 | 104.41005 | 31000 ft | 543 kts | 136° |
| 2026-05-08 03:04 | -15.83300 | 104.46833 | 31001 ft | 543 kts | 136° |
| 2026-05-08 03:04 | -15.88354 | 104.52662 | 31008 ft | 544 kts | 136° |
| 2026-05-08 03:05 | -15.93416 | 104.58502 | 31000 ft | 545 kts | 136° |
| 2026-05-08 03:05 | -15.98492 | 104.64364 | 31005 ft | 545 kts | 136° |
| 2026-05-08 03:06 | -16.03564 | 104.70227 | 30997 ft | 545 kts | 136° |
| 2026-05-08 03:06 | -16.08636 | 104.76095 | 31000 ft | 546 kts | 136° |
| 2026-05-08 03:07 | -16.13708 | 104.81967 | 31004 ft | 546 kts | 136° |
| 2026-05-08 03:07 | -16.18780 | 104.87844 | 31010 ft | 546 kts | 136° |
| 2026-05-08 03:08 | -16.23848 | 104.93721 | 31004 ft | 546 kts | 136° |
| 2026-05-08 03:08 | -16.28921 | 104.99609 | 31006 ft | 546 kts | 136° |
| 2026-05-08 03:09 | -16.33990 | 105.05497 | 31006 ft | 546 kts | 136° |
| 2026-05-08 03:09 | -16.39027 | 105.11353 | 31008 ft | 546 kts | 136° |
| 2026-05-08 03:10 | -16.44094 | 105.17249 | 31008 ft | 546 kts | 136° |
| 2026-05-08 03:10 | -16.49162 | 105.23151 | 31025 ft | 546 kts | 136° |
| 2026-05-08 03:11 | -16.54231 | 105.29059 | 31017 ft | 547 kts | 136° |
| 2026-05-08 03:11 | -16.59307 | 105.34980 | 31013 ft | 548 kts | 136° |
| 2026-05-08 03:12 | -16.64387 | 105.40911 | 31014 ft | 548 kts | 136° |
| 2026-05-08 03:12 | -16.69467 | 105.46848 | 31014 ft | 549 kts | 136° |
| 2026-05-08 03:13 | -16.74548 | 105.52790 | 31018 ft | 549 kts | 136° |
| 2026-05-08 03:13 | -16.79625 | 105.58734 | 31026 ft | 549 kts | 137° |
| 2026-05-08 03:14 | -16.84700 | 105.64680 | 31013 ft | 549 kts | 137° |
| 2026-05-08 03:14 | -16.89775 | 105.70632 | 31020 ft | 548 kts | 137° |
| 2026-05-08 03:15 | -16.94844 | 105.76580 | 31016 ft | 548 kts | 137° |
| 2026-05-08 03:15 | -16.99911 | 105.82533 | 31019 ft | 548 kts | 137° |
| 2026-05-08 03:16 | -17.04976 | 105.88488 | 31019 ft | 548 kts | 137° |
| 2026-05-08 03:16 | -17.10037 | 105.94443 | 31016 ft | 548 kts | 137° |
| 2026-05-08 03:17 | -17.15095 | 106.00401 | 31028 ft | 548 kts | 137° |
| 2026-05-08 03:17 | -17.20149 | 106.06359 | 31018 ft | 547 kts | 137° |
| 2026-05-08 03:18 | -17.25200 | 106.12319 | 31018 ft | 547 kts | 137° |
| 2026-05-08 03:18 | -17.30244 | 106.18276 | 31019 ft | 547 kts | 137° |
| 2026-05-08 03:19 | -17.35285 | 106.24234 | 31026 ft | 547 kts | 137° |
| 2026-05-08 03:19 | -17.40323 | 106.30194 | 31027 ft | 547 kts | 137° |
| 2026-05-08 03:20 | -17.45361 | 106.36160 | 31023 ft | 547 kts | 137° |
| 2026-05-08 03:20 | -17.50400 | 106.42132 | 31023 ft | 547 kts | 137° |
| 2026-05-08 03:21 | -17.55439 | 106.48109 | 31023 ft | 547 kts | 137° |
| 2026-05-08 03:21 | -17.60479 | 106.54094 | 31022 ft | 548 kts | 137° |
| 2026-05-08 03:22 | -17.65518 | 106.60083 | 31023 ft | 548 kts | 137° |
| 2026-05-08 03:22 | -17.70557 | 106.66078 | 31036 ft | 548 kts | 137° |
| 2026-05-08 03:23 | -17.75599 | 106.72081 | 31036 ft | 548 kts | 137° |
| 2026-05-08 03:23 | -17.80640 | 106.78088 | 31014 ft | 549 kts | 137° |
| 2026-05-08 03:24 | -17.85646 | 106.84060 | 31017 ft | 548 kts | 137° |
| 2026-05-08 03:24 | -17.90681 | 106.90073 | 31031 ft | 548 kts | 137° |
| 2026-05-08 03:25 | -17.95714 | 106.96087 | 31031 ft | 548 kts | 137° |
| 2026-05-08 03:25 | -18.00744 | 107.02104 | 31029 ft | 548 kts | 137° |
| 2026-05-08 03:26 | -18.05780 | 107.08133 | 31026 ft | 550 kts | 137° |
| 2026-05-08 03:26 | -18.10826 | 107.14180 | 31027 ft | 551 kts | 137° |
| 2026-05-08 03:27 | -18.15879 | 107.20241 | 31027 ft | 551 kts | 137° |
| 2026-05-08 03:27 | -18.20933 | 107.26311 | 31026 ft | 552 kts | 137° |
| 2026-05-08 03:28 | -18.25994 | 107.32394 | 31022 ft | 552 kts | 137° |
| 2026-05-08 03:28 | -18.31048 | 107.38475 | 31049 ft | 552 kts | 138° |
| 2026-05-08 03:29 | -18.36106 | 107.44566 | 31031 ft | 553 kts | 138° |
| 2026-05-08 03:29 | -18.41161 | 107.50660 | 31022 ft | 553 kts | 138° |
| 2026-05-08 03:30 | -18.48739 | 107.59807 | 31025 ft | 552 kts | 138° |
| 2026-05-08 03:31 | -18.58832 | 107.72008 | 31022 ft | 552 kts | 138° |
| 2026-05-08 03:32 | -18.66401 | 107.81173 | 31033 ft | 553 kts | 138° |
| 2026-05-08 03:32 | -18.71419 | 107.87257 | 31026 ft | 554 kts | 138° |
| 2026-05-08 03:33 | -18.76471 | 107.93390 | 31024 ft | 554 kts | 138° |
| 2026-05-08 03:33 | -18.81525 | 107.99531 | 31030 ft | 554 kts | 138° |
| 2026-05-08 03:34 | -18.86573 | 108.05670 | 31025 ft | 554 kts | 138° |
| 2026-05-08 03:34 | -18.91625 | 108.11820 | 31026 ft | 554 kts | 138° |
| 2026-05-08 03:35 | -18.96676 | 108.17974 | 31025 ft | 554 kts | 138° |
| 2026-05-08 03:35 | -19.01726 | 108.24135 | 31031 ft | 555 kts | 138° |
| 2026-05-08 03:36 | -19.06774 | 108.30299 | 31031 ft | 555 kts | 138° |
| 2026-05-08 03:36 | -19.11822 | 108.36469 | 31030 ft | 555 kts | 138° |
| 2026-05-08 03:37 | -19.16868 | 108.42644 | 31036 ft | 555 kts | 138° |
| 2026-05-08 03:37 | -19.21913 | 108.48824 | 31035 ft | 555 kts | 138° |
| 2026-05-08 03:38 | -19.26956 | 108.55008 | 31032 ft | 554 kts | 138° |
| 2026-05-08 03:38 | -19.31991 | 108.61189 | 31028 ft | 554 kts | 138° |
| 2026-05-08 03:39 | -19.37017 | 108.67363 | 31028 ft | 553 kts | 138° |
| 2026-05-08 03:39 | -19.42070 | 108.73501 | 31030 ft | 552 kts | 139° |
| 2026-05-08 03:40 | -19.47112 | 108.79572 | 31062 ft | 552 kts | 139° |
| 2026-05-08 03:40 | -19.52186 | 108.85693 | 31041 ft | 553 kts | 139° |
| 2026-05-08 03:41 | -19.57256 | 108.91831 | 31037 ft | 553 kts | 139° |
| 2026-05-08 03:41 | -19.62322 | 108.97978 | 31035 ft | 553 kts | 139° |
| 2026-05-08 03:42 | -19.67384 | 109.04125 | 31033 ft | 553 kts | 139° |
| 2026-05-08 03:42 | -19.72443 | 109.10275 | 31039 ft | 553 kts | 139° |
| 2026-05-08 03:43 | -19.77501 | 109.16429 | 31052 ft | 553 kts | 138° |
| 2026-05-08 03:43 | -19.82552 | 109.22581 | 31037 ft | 551 kts | 138° |
| 2026-05-08 03:44 | -19.87584 | 109.28716 | 31033 ft | 550 kts | 138° |
| 2026-05-08 03:44 | -19.92599 | 109.34837 | 31041 ft | 549 kts | 138° |
| 2026-05-08 03:45 | -19.97607 | 109.40955 | 31042 ft | 549 kts | 138° |
| 2026-05-08 03:45 | -20.02616 | 109.47079 | 31045 ft | 549 kts | 138° |
| 2026-05-08 03:46 | -20.06776 | 109.52172 | 31049 ft | 549 kts | 138° |
| 2026-05-08 03:46 | -20.11777 | 109.58301 | 31043 ft | 548 kts | 138° |
| 2026-05-08 03:47 | -20.16767 | 109.64424 | 31038 ft | 547 kts | 138° |
| 2026-05-08 03:47 | -20.21747 | 109.70539 | 31041 ft | 546 kts | 138° |
| 2026-05-08 03:48 | -20.26722 | 109.76655 | 31045 ft | 546 kts | 138° |
| 2026-05-08 03:48 | -20.31696 | 109.82776 | 31050 ft | 547 kts | 138° |
| 2026-05-08 03:49 | -20.36674 | 109.88907 | 31046 ft | 547 kts | 138° |
| 2026-05-08 03:49 | -20.41654 | 109.95049 | 31046 ft | 548 kts | 138° |
| 2026-05-08 03:50 | -20.46635 | 110.01199 | 31045 ft | 548 kts | 138° |
| 2026-05-08 03:50 | -20.51617 | 110.07357 | 31044 ft | 548 kts | 138° |
| 2026-05-08 03:51 | -20.56566 | 110.13480 | 31046 ft | 548 kts | 138° |
| 2026-05-08 03:51 | -20.61540 | 110.19642 | 31054 ft | 547 kts | 137° |
| 2026-05-08 03:52 | -20.66496 | 110.25789 | 31047 ft | 545 kts | 137° |
| 2026-05-08 03:52 | -20.71434 | 110.31920 | 31049 ft | 544 kts | 137° |
| 2026-05-08 03:53 | -20.76358 | 110.38039 | 31050 ft | 543 kts | 137° |
| 2026-05-08 03:53 | -20.81279 | 110.44160 | 31050 ft | 543 kts | 137° |
| 2026-05-08 03:54 | -20.86196 | 110.50282 | 31078 ft | 543 kts | 137° |
| 2026-05-08 03:54 | -20.91109 | 110.56408 | 31062 ft | 542 kts | 137° |
| 2026-05-08 03:55 | -20.96009 | 110.62526 | 31056 ft | 541 kts | 137° |
| 2026-05-08 03:55 | -21.00894 | 110.68631 | 31052 ft | 539 kts | 137° |
| 2026-05-08 03:56 | -21.05770 | 110.74730 | 31063 ft | 539 kts | 137° |
| 2026-05-08 03:56 | -21.10641 | 110.80828 | 31069 ft | 539 kts | 137° |
| 2026-05-08 03:57 | -21.15506 | 110.86927 | 31075 ft | 538 kts | 137° |
| 2026-05-08 03:57 | -21.20345 | 110.93004 | 31064 ft | 534 kts | 137° |
| 2026-05-08 03:58 | -21.25158 | 110.99053 | 31061 ft | 532 kts | 137° |
| 2026-05-08 03:58 | -21.29951 | 111.05080 | 31062 ft | 531 kts | 137° |
| 2026-05-08 03:59 | -21.34743 | 111.11112 | 31072 ft | 531 kts | 137° |
| 2026-05-08 03:59 | -21.39536 | 111.17152 | 31082 ft | 532 kts | 137° |
| 2026-05-08 04:00 | -21.44027 | 111.22818 | 31070 ft | 534 kts | 137° |
| 2026-05-08 04:00 | -21.48843 | 111.28902 | 31076 ft | 535 kts | 137° |
| 2026-05-08 04:01 | -21.53666 | 111.35003 | 31105 ft | 538 kts | 137° |
| 2026-05-08 04:01 | -21.56091 | 111.38070 | 31269 ft | 539 kts | 137° |
| 2026-05-08 04:01 | -21.58516 | 111.41143 | 31536 ft | 539 kts | 137° |
| 2026-05-08 04:01 | -21.60939 | 111.44215 | 31813 ft | 538 kts | 137° |
| 2026-05-08 04:02 | -21.63359 | 111.47285 | 32082 ft | 538 kts | 137° |
| 2026-05-08 04:02 | -21.65780 | 111.50358 | 32355 ft | 539 kts | 138° |
| 2026-05-08 04:02 | -21.68201 | 111.53431 | 32602 ft | 539 kts | 138° |
| 2026-05-08 04:02 | -21.70624 | 111.56509 | 32835 ft | 540 kts | 138° |
| 2026-05-08 04:03 | -21.73051 | 111.59592 | 33064 ft | 540 kts | 138° |
| 2026-05-08 04:03 | -21.77908 | 111.65769 | 33525 ft | 541 kts | 138° |
| 2026-05-08 04:03 | -21.80338 | 111.68862 | 33747 ft | 541 kts | 138° |
| 2026-05-08 04:04 | -21.82769 | 111.71959 | 33968 ft | 542 kts | 138° |
| 2026-05-08 04:04 | -21.85202 | 111.75059 | 34167 ft | 542 kts | 138° |
| 2026-05-08 04:04 | -21.87635 | 111.78163 | 34371 ft | 542 kts | 138° |
| 2026-05-08 04:04 | -21.90063 | 111.81262 | 34616 ft | 541 kts | 138° |
| 2026-05-08 04:05 | -21.92486 | 111.84358 | 34848 ft | 540 kts | 138° |
| 2026-05-08 04:05 | -21.94909 | 111.87454 | 34986 ft | 540 kts | 138° |
| 2026-05-08 04:05 | -21.99762 | 111.93656 | 35069 ft | 542 kts | 138° |
| 2026-05-08 04:06 | -22.04578 | 111.99822 | 35079 ft | 540 kts | 138° |
| 2026-05-08 04:06 | -22.09411 | 112.06017 | 35098 ft | 539 kts | 138° |
| 2026-05-08 04:07 | -22.14234 | 112.12206 | 35096 ft | 539 kts | 138° |
| 2026-05-08 04:07 | -22.19060 | 112.18403 | 35103 ft | 540 kts | 138° |
| 2026-05-08 04:08 | -22.23889 | 112.24611 | 35101 ft | 541 kts | 138° |
| 2026-05-08 04:08 | -22.28723 | 112.30836 | 35104 ft | 541 kts | 138° |
| 2026-05-08 04:09 | -22.33560 | 112.37072 | 35093 ft | 542 kts | 138° |
| 2026-05-08 04:09 | -22.38400 | 112.43320 | 35099 ft | 542 kts | 138° |
| 2026-05-08 04:10 | -22.43240 | 112.49573 | 35139 ft | 543 kts | 138° |
| 2026-05-08 04:10 | -22.48085 | 112.55841 | 35108 ft | 543 kts | 138° |
| 2026-05-08 04:11 | -22.52925 | 112.62112 | 35093 ft | 543 kts | 138° |
| 2026-05-08 04:11 | -22.57758 | 112.68380 | 35108 ft | 542 kts | 138° |
| 2026-05-08 04:12 | -22.62586 | 112.74650 | 35113 ft | 542 kts | 138° |
| 2026-05-08 04:12 | -22.67403 | 112.80912 | 35098 ft | 541 kts | 138° |
| 2026-05-08 04:13 | -22.72218 | 112.87178 | 35116 ft | 541 kts | 138° |
| 2026-05-08 04:13 | -22.77028 | 112.93447 | 35108 ft | 540 kts | 138° |
| 2026-05-08 04:14 | -22.81797 | 112.99669 | 35108 ft | 540 kts | 138° |
| 2026-05-08 04:14 | -22.86590 | 113.05930 | 35108 ft | 539 kts | 138° |
| 2026-05-08 04:15 | -22.91379 | 113.12193 | 35119 ft | 539 kts | 138° |
| 2026-05-08 04:15 | -22.96165 | 113.18460 | 35116 ft | 539 kts | 138° |
| 2026-05-08 04:16 | -23.00952 | 113.24735 | 35112 ft | 540 kts | 138° |
| 2026-05-08 04:16 | -23.05736 | 113.31016 | 35112 ft | 540 kts | 138° |
| 2026-05-08 04:17 | -23.10519 | 113.37302 | 35109 ft | 540 kts | 138° |
| 2026-05-08 04:17 | -23.15301 | 113.43596 | 35112 ft | 540 kts | 138° |
| 2026-05-08 04:18 | -23.20081 | 113.49894 | 35112 ft | 541 kts | 138° |
| 2026-05-08 04:18 | -23.24863 | 113.56202 | 35109 ft | 540 kts | 138° |
| 2026-05-08 04:19 | -23.29638 | 113.62510 | 35110 ft | 540 kts | 138° |
| 2026-05-08 04:19 | -23.34407 | 113.68818 | 35112 ft | 539 kts | 138° |
| 2026-05-08 04:20 | -23.39170 | 113.75125 | 35109 ft | 539 kts | 137° |
| 2026-05-08 04:20 | -23.43930 | 113.81437 | 35132 ft | 540 kts | 137° |
| 2026-05-08 04:21 | -23.48695 | 113.87763 | 35120 ft | 540 kts | 137° |
| 2026-05-08 04:21 | -23.53399 | 113.94154 | 35115 ft | 542 kts | 136° |
| 2026-05-08 04:22 | -23.57980 | 114.00680 | 35115 ft | 542 kts | 135° |
| 2026-05-08 04:22 | -23.62512 | 114.07180 | 35115 ft | 542 kts | 135° |
| 2026-05-08 04:23 | -23.67092 | 114.13706 | 35148 ft | 542 kts | 135° |
| 2026-05-08 04:23 | -23.71681 | 114.20225 | 35117 ft | 542 kts | 135° |
| 2026-05-08 04:24 | -23.76269 | 114.26745 | 35119 ft | 541 kts | 135° |
| 2026-05-08 04:24 | -23.80848 | 114.33265 | 35123 ft | 541 kts | 135° |
| 2026-05-08 04:25 | -23.85421 | 114.39785 | 35136 ft | 541 kts | 135° |
| 2026-05-08 04:25 | -23.89992 | 114.46311 | 35159 ft | 541 kts | 135° |
| 2026-05-08 04:26 | -23.94564 | 114.52848 | 35140 ft | 541 kts | 135° |
| 2026-05-08 04:26 | -23.99130 | 114.59387 | 35132 ft | 541 kts | 135° |
| 2026-05-08 04:27 | -24.03686 | 114.65920 | 35141 ft | 540 kts | 135° |
| 2026-05-08 04:27 | -24.08236 | 114.72452 | 35136 ft | 539 kts | 135° |
| 2026-05-08 04:28 | -24.12782 | 114.78986 | 35175 ft | 539 kts | 135° |
| 2026-05-08 04:28 | -24.17320 | 114.85517 | 35152 ft | 539 kts | 134° |
| 2026-05-08 04:29 | -24.21851 | 114.92048 | 35143 ft | 538 kts | 134° |
| 2026-05-08 04:29 | -24.26371 | 114.98571 | 35151 ft | 537 kts | 134° |
| 2026-05-08 04:30 | -24.30855 | 115.05049 | 35163 ft | 537 kts | 134° |
| 2026-05-08 04:30 | -24.35365 | 115.11573 | 35160 ft | 537 kts | 134° |
| 2026-05-08 04:31 | -24.39867 | 115.18096 | 35162 ft | 536 kts | 133° |
| 2026-05-08 04:31 | -24.44354 | 115.24608 | 35158 ft | 534 kts | 133° |
| 2026-05-08 04:32 | -24.48831 | 115.31113 | 35159 ft | 533 kts | 133° |
| 2026-05-08 04:32 | -24.53298 | 115.37610 | 35160 ft | 533 kts | 133° |
| 2026-05-08 04:33 | -24.57766 | 115.44116 | 35169 ft | 534 kts | 133° |
| 2026-05-08 04:33 | -24.62233 | 115.50630 | 35172 ft | 533 kts | 132° |
| 2026-05-08 04:34 | -24.66686 | 115.57136 | 35170 ft | 532 kts | 132° |
| 2026-05-08 04:34 | -24.70376 | 115.62534 | 35164 ft | 531 kts | 132° |
| 2026-05-08 04:35 | -24.74804 | 115.69017 | 35167 ft | 530 kts | 132° |
| 2026-05-08 04:35 | -24.79224 | 115.75497 | 35174 ft | 529 kts | 132° |
| 2026-05-08 04:36 | -24.83640 | 115.81979 | 35181 ft | 529 kts | 131° |
| 2026-05-08 04:36 | -24.88043 | 115.88452 | 35179 ft | 527 kts | 131° |
| 2026-05-08 04:37 | -24.92427 | 115.94905 | 35176 ft | 526 kts | 131° |
| 2026-05-08 04:37 | -24.96803 | 116.01356 | 35180 ft | 525 kts | 131° |
| 2026-05-08 04:38 | -25.01170 | 116.07800 | 35184 ft | 525 kts | 131° |
| 2026-05-08 04:38 | -25.05533 | 116.14248 | 35198 ft | 524 kts | 130° |
| 2026-05-08 04:39 | -25.09874 | 116.20674 | 35187 ft | 521 kts | 130° |
| 2026-05-08 04:39 | -25.14195 | 116.27078 | 35181 ft | 519 kts | 130° |
| 2026-05-08 04:40 | -25.18501 | 116.33469 | 35190 ft | 518 kts | 130° |
| 2026-05-08 04:40 | -25.22804 | 116.39860 | 35199 ft | 519 kts | 130° |
| 2026-05-08 04:41 | -25.27111 | 116.46270 | 35200 ft | 520 kts | 130° |
| 2026-05-08 04:41 | -25.31426 | 116.52697 | 35201 ft | 521 kts | 130° |
| 2026-05-08 04:42 | -25.35746 | 116.59142 | 35201 ft | 522 kts | 130° |
| 2026-05-08 04:42 | -25.40070 | 116.65603 | 35203 ft | 523 kts | 130° |
| 2026-05-08 04:43 | -25.44399 | 116.72079 | 35203 ft | 524 kts | 130° |
| 2026-05-08 04:43 | -25.48725 | 116.78561 | 35215 ft | 522 kts | 129° |
| 2026-05-08 04:44 | -25.53023 | 116.85011 | 35196 ft | 519 kts | 129° |
| 2026-05-08 04:44 | -25.57291 | 116.91424 | 35201 ft | 516 kts | 129° |
| 2026-05-08 04:45 | -25.61541 | 116.97816 | 35201 ft | 515 kts | 129° |
| 2026-05-08 04:45 | -25.65784 | 117.04206 | 35223 ft | 515 kts | 129° |
| 2026-05-08 04:46 | -25.70026 | 117.10605 | 35219 ft | 515 kts | 129° |
| 2026-05-08 04:46 | -25.74270 | 117.17015 | 35219 ft | 515 kts | 129° |
| 2026-05-08 04:47 | -25.78531 | 117.23462 | 35216 ft | 515 kts | 129° |
| 2026-05-08 04:47 | -25.82738 | 117.29833 | 35222 ft | 515 kts | 129° |
| 2026-05-08 04:48 | -25.86938 | 117.36204 | 35222 ft | 515 kts | 129° |
| 2026-05-08 04:48 | -25.91163 | 117.42621 | 35237 ft | 514 kts | 129° |
| 2026-05-08 04:49 | -25.95381 | 117.49036 | 35231 ft | 514 kts | 129° |
| 2026-05-08 04:49 | -25.99597 | 117.55459 | 35232 ft | 514 kts | 129° |
| 2026-05-08 04:50 | -26.03804 | 117.61875 | 35228 ft | 514 kts | 129° |
| 2026-05-08 04:50 | -26.08009 | 117.68297 | 35236 ft | 514 kts | 128° |
| 2026-05-08 04:51 | -26.12211 | 117.74724 | 35242 ft | 514 kts | 128° |
| 2026-05-08 04:51 | -26.16412 | 117.81158 | 35241 ft | 513 kts | 128° |
| 2026-05-08 04:52 | -26.20607 | 117.87591 | 35240 ft | 513 kts | 128° |
| 2026-05-08 04:52 | -26.24793 | 117.94021 | 35245 ft | 513 kts | 128° |
| 2026-05-08 04:53 | -26.28978 | 118.00458 | 35244 ft | 513 kts | 128° |
| 2026-05-08 04:53 | -26.33496 | 118.07418 | 35260 ft | 513 kts | 128° |
| 2026-05-08 04:54 | -26.37675 | 118.13865 | 35242 ft | 513 kts | 128° |
| 2026-05-08 04:54 | -26.41850 | 118.20314 | 35254 ft | 513 kts | 128° |
| 2026-05-08 04:55 | -26.46024 | 118.26771 | 35250 ft | 513 kts | 128° |
| 2026-05-08 04:55 | -26.50194 | 118.33233 | 35254 ft | 513 kts | 128° |
| 2026-05-08 04:56 | -26.54361 | 118.39698 | 35265 ft | 513 kts | 128° |
| 2026-05-08 04:56 | -26.58522 | 118.46171 | 35261 ft | 513 kts | 127° |
| 2026-05-08 04:57 | -26.61811 | 118.51697 | 35258 ft | 514 kts | 125° |
| 2026-05-08 04:57 | -26.65614 | 118.58465 | 35267 ft | 514 kts | 124° |
| 2026-05-08 04:58 | -26.69423 | 118.65232 | 35258 ft | 514 kts | 124° |
| 2026-05-08 04:58 | -26.73262 | 118.71970 | 35279 ft | 514 kts | 125° |
| 2026-05-08 04:59 | -26.77116 | 118.78703 | 35276 ft | 513 kts | 125° |
| 2026-05-08 04:59 | -26.80963 | 118.85432 | 35268 ft | 513 kts | 125° |
| 2026-05-08 05:00 | -26.84800 | 118.92158 | 35283 ft | 513 kts | 125° |
| 2026-05-08 05:00 | -26.88634 | 118.98892 | 35275 ft | 513 kts | 125° |
| 2026-05-08 05:01 | -26.92464 | 119.05630 | 35273 ft | 513 kts | 124° |
| 2026-05-08 05:01 | -26.96291 | 119.12373 | 35285 ft | 513 kts | 124° |
| 2026-05-08 05:02 | -27.00115 | 119.19121 | 35288 ft | 512 kts | 124° |
| 2026-05-08 05:02 | -27.03934 | 119.25870 | 35286 ft | 513 kts | 124° |
| 2026-05-08 05:03 | -27.07726 | 119.32580 | 35305 ft | 513 kts | 124° |
| 2026-05-08 05:03 | -27.11543 | 119.39347 | 35299 ft | 513 kts | 124° |
| 2026-05-08 05:04 | -27.15357 | 119.46118 | 35295 ft | 513 kts | 124° |
| 2026-05-08 05:04 | -27.19167 | 119.52892 | 35307 ft | 513 kts | 124° |
| 2026-05-08 05:05 | -27.22971 | 119.59668 | 35297 ft | 513 kts | 124° |
| 2026-05-08 05:05 | -27.26770 | 119.66443 | 35307 ft | 512 kts | 124° |
| 2026-05-08 05:06 | -27.30565 | 119.73222 | 35306 ft | 512 kts | 124° |
| 2026-05-08 05:06 | -27.34357 | 119.80005 | 35310 ft | 512 kts | 124° |
| 2026-05-08 05:07 | -27.38149 | 119.86799 | 35306 ft | 513 kts | 124° |
| 2026-05-08 05:07 | -27.41941 | 119.93605 | 35313 ft | 514 kts | 124° |
| 2026-05-08 05:08 | -27.45737 | 120.00427 | 35329 ft | 514 kts | 124° |
| 2026-05-08 05:08 | -27.49530 | 120.07256 | 35317 ft | 514 kts | 124° |
| 2026-05-08 05:09 | -27.53315 | 120.14082 | 35318 ft | 513 kts | 124° |
| 2026-05-08 05:09 | -27.57093 | 120.20905 | 35315 ft | 513 kts | 124° |
| 2026-05-08 05:10 | -27.62744 | 120.31131 | 35325 ft | 512 kts | 124° |
| 2026-05-08 05:11 | -27.66506 | 120.37950 | 35332 ft | 511 kts | 124° |
| 2026-05-08 05:11 | -27.70257 | 120.44763 | 35326 ft | 511 kts | 124° |
| 2026-05-08 05:12 | -27.74004 | 120.51579 | 35327 ft | 511 kts | 124° |
| 2026-05-08 05:12 | -27.77747 | 120.58398 | 35328 ft | 511 kts | 124° |
| 2026-05-08 05:13 | -27.81459 | 120.65172 | 35332 ft | 511 kts | 124° |
| 2026-05-08 05:13 | -27.85250 | 120.71945 | 35335 ft | 509 kts | 126° |
| 2026-05-08 05:14 | -27.89304 | 120.78501 | 35342 ft | 508 kts | 127° |
| 2026-05-08 05:14 | -27.93404 | 120.85005 | 35341 ft | 508 kts | 127° |
| 2026-05-08 05:15 | -27.97484 | 120.91526 | 35340 ft | 508 kts | 127° |
| 2026-05-08 05:15 | -28.01542 | 120.98065 | 35355 ft | 508 kts | 127° |
| 2026-05-08 05:16 | -28.05592 | 121.04618 | 35342 ft | 508 kts | 127° |
| 2026-05-08 05:16 | -28.09635 | 121.11169 | 35349 ft | 507 kts | 127° |
| 2026-05-08 05:17 | -28.13678 | 121.17726 | 35353 ft | 507 kts | 127° |
| 2026-05-08 05:17 | -28.17717 | 121.24286 | 35357 ft | 507 kts | 127° |
| 2026-05-08 05:18 | -28.21754 | 121.30852 | 35362 ft | 508 kts | 127° |
| 2026-05-08 05:18 | -28.25790 | 121.37428 | 35364 ft | 508 kts | 127° |
| 2026-05-08 05:19 | -28.29823 | 121.44007 | 35362 ft | 508 kts | 127° |
| 2026-05-08 05:19 | -28.33849 | 121.50587 | 35370 ft | 508 kts | 127° |
| 2026-05-08 05:20 | -28.37875 | 121.57174 | 35375 ft | 508 kts | 127° |
| 2026-05-08 05:20 | -28.41897 | 121.63768 | 35371 ft | 508 kts | 127° |
| 2026-05-08 05:21 | -28.45915 | 121.70364 | 35373 ft | 508 kts | 127° |
| 2026-05-08 05:21 | -28.49929 | 121.76965 | 35379 ft | 508 kts | 127° |
| 2026-05-08 05:22 | -28.53943 | 121.83574 | 35387 ft | 508 kts | 127° |
| 2026-05-08 05:22 | -28.57919 | 121.90132 | 35384 ft | 508 kts | 127° |
| 2026-05-08 05:23 | -28.61928 | 121.96755 | 35387 ft | 508 kts | 127° |
| 2026-05-08 05:23 | -28.65929 | 122.03374 | 35388 ft | 508 kts | 126° |
| 2026-05-08 05:24 | -28.69927 | 122.10000 | 35390 ft | 508 kts | 126° |
| 2026-05-08 05:24 | -28.73923 | 122.16632 | 35393 ft | 508 kts | 126° |
| 2026-05-08 05:25 | -28.77915 | 122.23268 | 35392 ft | 507 kts | 126° |
| 2026-05-08 05:25 | -28.81901 | 122.29905 | 35397 ft | 507 kts | 126° |
| 2026-05-08 05:26 | -28.85884 | 122.36547 | 35394 ft | 507 kts | 126° |
| 2026-05-08 05:26 | -28.89861 | 122.43190 | 35407 ft | 507 kts | 126° |
| 2026-05-08 05:27 | -28.93838 | 122.49843 | 35396 ft | 507 kts | 126° |
| 2026-05-08 05:27 | -28.97808 | 122.56496 | 35404 ft | 507 kts | 126° |
| 2026-05-08 05:28 | -29.01774 | 122.63152 | 35401 ft | 507 kts | 126° |
| 2026-05-08 05:28 | -29.05738 | 122.69813 | 35405 ft | 507 kts | 126° |
| 2026-05-08 05:29 | -29.09701 | 122.76486 | 35416 ft | 508 kts | 126° |
| 2026-05-08 05:29 | -29.13666 | 122.83172 | 35414 ft | 508 kts | 126° |
| 2026-05-08 05:30 | -29.17630 | 122.89868 | 35413 ft | 508 kts | 126° |
| 2026-05-08 05:30 | -29.21564 | 122.96522 | 35421 ft | 508 kts | 126° |
| 2026-05-08 05:31 | -29.25518 | 123.03222 | 35416 ft | 508 kts | 126° |
| 2026-05-08 05:31 | -29.29468 | 123.09927 | 35423 ft | 507 kts | 126° |
| 2026-05-08 05:32 | -29.33412 | 123.16631 | 35417 ft | 507 kts | 126° |
| 2026-05-08 05:32 | -29.37353 | 123.23343 | 35426 ft | 507 kts | 126° |
| 2026-05-08 05:33 | -29.41288 | 123.30053 | 35424 ft | 507 kts | 125° |
| 2026-05-08 05:33 | -29.45217 | 123.36764 | 35422 ft | 507 kts | 126° |
| 2026-05-08 05:34 | -29.49144 | 123.43485 | 35435 ft | 507 kts | 126° |
| 2026-05-08 05:34 | -29.53066 | 123.50209 | 35440 ft | 507 kts | 125° |
| 2026-05-08 05:35 | -29.56984 | 123.56931 | 35441 ft | 507 kts | 125° |
| 2026-05-08 05:35 | -29.60903 | 123.63671 | 35437 ft | 507 kts | 125° |
| 2026-05-08 05:36 | -29.64809 | 123.70406 | 35446 ft | 506 kts | 125° |
| 2026-05-08 05:36 | -29.68683 | 123.77084 | 35445 ft | 505 kts | 125° |
| 2026-05-08 05:37 | -29.72605 | 123.83854 | 35440 ft | 505 kts | 125° |
| 2026-05-08 05:37 | -29.76463 | 123.90541 | 35456 ft | 504 kts | 124° |
| 2026-05-08 05:38 | -29.80342 | 123.97263 | 35454 ft | 504 kts | 124° |
| 2026-05-08 05:38 | -29.84212 | 124.03984 | 35459 ft | 503 kts | 124° |
| 2026-05-08 05:39 | -29.88069 | 124.10692 | 35468 ft | 501 kts | 124° |
| 2026-05-08 05:39 | -29.91906 | 124.17377 | 35458 ft | 499 kts | 124° |
| 2026-05-08 05:40 | -29.95730 | 124.24047 | 35454 ft | 499 kts | 124° |
| 2026-05-08 05:40 | -29.96822 | 124.25953 | 35454 ft | 499 kts | 124° |
| 2026-05-08 05:41 | -29.97833 | 124.27722 | 35457 ft | 499 kts | 124° |
| 2026-05-08 05:41 | -30.01660 | 124.34418 | 35467 ft | 501 kts | 124° |
| 2026-05-08 05:42 | -30.05490 | 124.41138 | 35472 ft | 501 kts | 124° |
| 2026-05-08 05:42 | -30.09314 | 124.47850 | 35464 ft | 500 kts | 124° |
| 2026-05-08 05:43 | -30.13124 | 124.54550 | 35472 ft | 498 kts | 124° |
| 2026-05-08 05:43 | -30.16931 | 124.61249 | 35466 ft | 499 kts | 124° |
| 2026-05-08 05:44 | -30.20732 | 124.67956 | 35481 ft | 499 kts | 123° |
| 2026-05-08 05:44 | -30.24505 | 124.74626 | 35476 ft | 499 kts | 123° |
| 2026-05-08 05:45 | -30.28298 | 124.81341 | 35475 ft | 499 kts | 123° |
| 2026-05-08 05:45 | -30.32085 | 124.88056 | 35474 ft | 498 kts | 123° |
| 2026-05-08 05:46 | -30.35863 | 124.94767 | 35479 ft | 496 kts | 123° |
| 2026-05-08 05:46 | -30.39622 | 125.01455 | 35473 ft | 495 kts | 123° |
| 2026-05-08 05:47 | -30.42739 | 125.07009 | 35475 ft | 494 kts | 123° |
| 2026-05-08 05:47 | -30.46506 | 125.13731 | 35484 ft | 494 kts | 123° |
| 2026-05-08 05:48 | -30.50224 | 125.20376 | 35493 ft | 494 kts | 122° |
| 2026-05-08 05:48 | -30.53957 | 125.27062 | 35486 ft | 493 kts | 122° |
| 2026-05-08 05:49 | -30.57682 | 125.33743 | 35478 ft | 493 kts | 122° |
| 2026-05-08 05:49 | -30.61424 | 125.40468 | 35487 ft | 492 kts | 122° |
| 2026-05-08 05:50 | -30.65110 | 125.47101 | 35486 ft | 492 kts | 122° |
| 2026-05-08 05:50 | -30.68819 | 125.53788 | 35487 ft | 492 kts | 122° |
| 2026-05-08 05:51 | -30.72523 | 125.60478 | 35482 ft | 492 kts | 122° |
| 2026-05-08 05:51 | -30.76227 | 125.67177 | 35488 ft | 493 kts | 122° |
| 2026-05-08 05:52 | -30.79931 | 125.73890 | 35493 ft | 493 kts | 122° |
| 2026-05-08 05:52 | -30.83631 | 125.80606 | 35485 ft | 493 kts | 122° |
| 2026-05-08 05:53 | -30.87324 | 125.87320 | 35485 ft | 492 kts | 122° |
| 2026-05-08 05:53 | -30.91096 | 125.93972 | 35490 ft | 492 kts | 123° |
| 2026-05-08 05:54 | -30.94922 | 126.00577 | 35491 ft | 491 kts | 123° |
| 2026-05-08 05:54 | -30.98733 | 126.07179 | 35489 ft | 490 kts | 122° |
| 2026-05-08 05:55 | -31.02519 | 126.13782 | 35498 ft | 490 kts | 123° |
| 2026-05-08 05:55 | -31.06293 | 126.20388 | 35498 ft | 489 kts | 123° |
| 2026-05-08 05:56 | -31.10056 | 126.26990 | 35493 ft | 488 kts | 122° |
| 2026-05-08 05:56 | -31.13807 | 126.33579 | 35500 ft | 487 kts | 122° |
| 2026-05-08 05:57 | -31.17526 | 126.40119 | 35498 ft | 487 kts | 123° |
| 2026-05-08 05:57 | -31.21267 | 126.46713 | 35500 ft | 487 kts | 122° |
| 2026-05-08 05:58 | -31.25002 | 126.53308 | 35507 ft | 487 kts | 122° |
| 2026-05-08 05:58 | -31.28737 | 126.59908 | 35507 ft | 487 kts | 122° |
| 2026-05-08 05:59 | -31.32463 | 126.66512 | 35505 ft | 486 kts | 122° |
| 2026-05-08 05:59 | -31.36188 | 126.73116 | 35506 ft | 486 kts | 122° |
| 2026-05-08 06:00 | -31.39903 | 126.79723 | 35504 ft | 486 kts | 121° |
| 2026-05-08 06:00 | -31.43610 | 126.86327 | 35510 ft | 485 kts | 121° |
| 2026-05-08 06:01 | -31.47315 | 126.92928 | 35512 ft | 485 kts | 122° |
| 2026-05-08 06:01 | -31.51014 | 126.99532 | 35511 ft | 484 kts | 121° |
| 2026-05-08 06:02 | -31.54700 | 127.06127 | 35508 ft | 484 kts | 122° |
| 2026-05-08 06:02 | -31.58382 | 127.12727 | 35508 ft | 483 kts | 122° |
| 2026-05-08 06:03 | -31.62054 | 127.19325 | 35514 ft | 483 kts | 121° |
| 2026-05-08 06:03 | -31.65721 | 127.25917 | 35511 ft | 482 kts | 122° |
| 2026-05-08 06:04 | -31.69378 | 127.32503 | 35517 ft | 481 kts | 122° |
| 2026-05-08 06:04 | -31.73028 | 127.39090 | 35517 ft | 481 kts | 122° |
| 2026-05-08 06:05 | -31.76676 | 127.45685 | 35517 ft | 482 kts | 121° |
| 2026-05-08 06:05 | -31.80320 | 127.52286 | 35522 ft | 481 kts | 121° |
| 2026-05-08 06:06 | -31.83958 | 127.58884 | 35520 ft | 480 kts | 121° |
| 2026-05-08 06:06 | -31.87584 | 127.65473 | 35520 ft | 480 kts | 121° |
| 2026-05-08 06:07 | -31.91208 | 127.72065 | 35527 ft | 479 kts | 121° |
| 2026-05-08 06:07 | -31.94821 | 127.78656 | 35528 ft | 479 kts | 121° |
| 2026-05-08 06:08 | -31.98433 | 127.85256 | 35530 ft | 479 kts | 121° |
| 2026-05-08 06:08 | -32.02038 | 127.91852 | 35530 ft | 479 kts | 121° |
| 2026-05-08 06:09 | -32.05638 | 127.98451 | 35532 ft | 479 kts | 121° |
| 2026-05-08 06:09 | -32.09236 | 128.05057 | 35530 ft | 479 kts | 121° |
| 2026-05-08 06:10 | -32.12808 | 128.11625 | 35528 ft | 479 kts | 121° |
| 2026-05-08 06:10 | -32.16401 | 128.18247 | 35529 ft | 479 kts | 121° |
| 2026-05-08 06:11 | -32.19991 | 128.24875 | 35534 ft | 479 kts | 121° |
| 2026-05-08 06:11 | -32.23575 | 128.31500 | 35530 ft | 479 kts | 121° |
| 2026-05-08 06:12 | -32.27153 | 128.38126 | 35533 ft | 478 kts | 121° |
| 2026-05-08 06:12 | -32.30727 | 128.44759 | 35533 ft | 478 kts | 121° |
| 2026-05-08 06:13 | -32.34291 | 128.51383 | 35534 ft | 477 kts | 121° |
| 2026-05-08 06:13 | -32.37852 | 128.58012 | 35535 ft | 477 kts | 121° |
| 2026-05-08 06:14 | -32.41407 | 128.64645 | 35539 ft | 477 kts | 121° |
| 2026-05-08 06:14 | -32.44960 | 128.71283 | 35532 ft | 477 kts | 121° |
| 2026-05-08 06:15 | -32.48508 | 128.77925 | 35539 ft | 477 kts | 121° |
| 2026-05-08 06:15 | -32.52053 | 128.84572 | 35541 ft | 477 kts | 121° |
| 2026-05-08 06:16 | -32.55598 | 128.91232 | 35540 ft | 477 kts | 121° |
| 2026-05-08 06:16 | -32.59136 | 128.97891 | 35540 ft | 477 kts | 121° |
| 2026-05-08 06:17 | -32.64440 | 129.07894 | 35531 ft | 478 kts | 121° |
| 2026-05-08 06:17 | -32.67971 | 129.14569 | 35533 ft | 478 kts | 121° |
| 2026-05-08 06:18 | -32.71500 | 129.21252 | 35540 ft | 478 kts | 121° |
| 2026-05-08 06:18 | -32.75026 | 129.27940 | 35541 ft | 478 kts | 121° |
| 2026-05-08 06:19 | -32.78548 | 129.34635 | 35542 ft | 478 kts | 120° |
| 2026-05-08 06:19 | -32.82066 | 129.41333 | 35540 ft | 478 kts | 120° |
| 2026-05-08 06:20 | -32.85578 | 129.48032 | 35541 ft | 477 kts | 121° |
| 2026-05-08 06:20 | -32.89063 | 129.54691 | 35545 ft | 477 kts | 121° |
| 2026-05-08 06:21 | -32.92569 | 129.61403 | 35548 ft | 478 kts | 121° |
| 2026-05-08 06:21 | -32.96073 | 129.68123 | 35539 ft | 478 kts | 121° |
| 2026-05-08 06:22 | -32.99573 | 129.74848 | 35548 ft | 478 kts | 120° |
| 2026-05-08 06:22 | -33.03070 | 129.81579 | 35543 ft | 478 kts | 120° |
| 2026-05-08 06:23 | -33.06560 | 129.88308 | 35545 ft | 477 kts | 120° |
| 2026-05-08 06:23 | -33.10044 | 129.95039 | 35544 ft | 477 kts | 120° |
| 2026-05-08 06:24 | -33.13523 | 130.01771 | 35548 ft | 477 kts | 120° |
| 2026-05-08 06:24 | -33.16999 | 130.08512 | 35547 ft | 477 kts | 120° |
| 2026-05-08 06:25 | -33.20470 | 130.15254 | 35548 ft | 476 kts | 120° |
| 2026-05-08 06:25 | -33.23936 | 130.21997 | 35545 ft | 476 kts | 120° |
| 2026-05-08 06:26 | -33.27397 | 130.28747 | 35549 ft | 476 kts | 120° |
| 2026-05-08 06:26 | -33.30852 | 130.35496 | 35543 ft | 476 kts | 120° |
| 2026-05-08 06:27 | -33.34302 | 130.42248 | 35545 ft | 476 kts | 120° |
| 2026-05-08 06:27 | -33.37748 | 130.49003 | 35543 ft | 476 kts | 120° |
| 2026-05-08 06:28 | -33.41193 | 130.55769 | 35547 ft | 476 kts | 120° |
| 2026-05-08 06:28 | -33.44638 | 130.62549 | 35547 ft | 477 kts | 120° |
| 2026-05-08 06:29 | -33.48079 | 130.69333 | 35548 ft | 477 kts | 120° |
| 2026-05-08 06:29 | -33.51514 | 130.76117 | 35544 ft | 476 kts | 120° |
| 2026-05-08 06:30 | -33.54946 | 130.82908 | 35550 ft | 476 kts | 120° |
| 2026-05-08 06:30 | -33.58368 | 130.89694 | 35549 ft | 475 kts | 120° |
| 2026-05-08 06:31 | -33.61789 | 130.96489 | 35547 ft | 476 kts | 120° |
| 2026-05-08 06:31 | -33.65184 | 131.03246 | 35546 ft | 476 kts | 120° |
| 2026-05-08 06:32 | -33.68600 | 131.10058 | 35547 ft | 477 kts | 120° |
| 2026-05-08 06:32 | -33.72016 | 131.16882 | 35550 ft | 477 kts | 120° |
| 2026-05-08 06:33 | -33.74876 | 131.22606 | 35551 ft | 476 kts | 120° |
| 2026-05-08 06:33 | -33.78256 | 131.29380 | 35541 ft | 475 kts | 120° |
| 2026-05-08 06:34 | -33.81668 | 131.36233 | 35549 ft | 474 kts | 120° |
| 2026-05-08 06:34 | -33.85028 | 131.42996 | 35544 ft | 474 kts | 120° |
| 2026-05-08 06:35 | -33.88404 | 131.49800 | 35546 ft | 474 kts | 120° |
| 2026-05-08 06:35 | -33.91882 | 131.56541 | 35547 ft | 474 kts | 122° |
| 2026-05-08 06:36 | -33.95451 | 131.63221 | 35548 ft | 474 kts | 122° |
| 2026-05-08 06:36 | -33.99008 | 131.69901 | 35545 ft | 473 kts | 122° |
| 2026-05-08 06:37 | -34.02539 | 131.76593 | 35546 ft | 473 kts | 121° |
| 2026-05-08 06:37 | -34.06061 | 131.83299 | 35545 ft | 474 kts | 121° |
| 2026-05-08 06:38 | -34.09580 | 131.90015 | 35546 ft | 474 kts | 121° |
| 2026-05-08 06:38 | -34.13098 | 131.96739 | 35537 ft | 474 kts | 121° |
| 2026-05-08 06:39 | -34.16616 | 132.03476 | 35539 ft | 474 kts | 121° |
| 2026-05-08 06:39 | -34.20128 | 132.10215 | 35538 ft | 474 kts | 121° |
| 2026-05-08 06:40 | -34.23642 | 132.16970 | 35547 ft | 474 kts | 121° |
| 2026-05-08 06:40 | -34.27148 | 132.23721 | 35540 ft | 474 kts | 121° |
| 2026-05-08 06:41 | -34.30653 | 132.30480 | 35533 ft | 475 kts | 121° |
| 2026-05-08 06:41 | -34.34152 | 132.37245 | 35540 ft | 474 kts | 121° |
| 2026-05-08 06:42 | -34.35902 | 132.40634 | 35652 ft | 476 kts | 121° |
| 2026-05-08 06:42 | -34.37654 | 132.44029 | 35915 ft | 475 kts | 121° |
| 2026-05-08 06:42 | -34.39397 | 132.47409 | 36250 ft | 472 kts | 121° |
| 2026-05-08 06:42 | -34.41128 | 132.50768 | 36584 ft | 469 kts | 121° |
| 2026-05-08 06:43 | -34.42854 | 132.54121 | 36844 ft | 469 kts | 122° |
| 2026-05-08 06:43 | -34.44586 | 132.57488 | 36865 ft | 474 kts | 121° |
| 2026-05-08 06:43 | -34.46320 | 132.60865 | 37174 ft | 471 kts | 122° |
| 2026-05-08 06:43 | -34.48059 | 132.64254 | 37230 ft | 474 kts | 121° |
| 2026-05-08 06:44 | -34.49791 | 132.67635 | 37536 ft | 472 kts | 122° |
| 2026-05-08 06:44 | -34.51515 | 132.71002 | 37518 ft | 468 kts | 122° |
| 2026-05-08 06:44 | -34.54911 | 132.77641 | 37526 ft | 460 kts | 122° |
| 2026-05-08 06:45 | -34.58299 | 132.84274 | 37544 ft | 465 kts | 122° |
| 2026-05-08 06:45 | -34.61720 | 132.90988 | 37545 ft | 470 kts | 122° |
| 2026-05-08 06:46 | -34.65141 | 132.97715 | 37544 ft | 471 kts | 122° |
| 2026-05-08 06:46 | -34.68553 | 133.04436 | 37527 ft | 463 kts | 121° |
| 2026-05-08 06:47 | -34.71904 | 133.11049 | 37528 ft | 457 kts | 121° |
| 2026-05-08 06:47 | -34.75258 | 133.17682 | 37541 ft | 465 kts | 121° |
| 2026-05-08 06:48 | -34.78656 | 133.24415 | 37540 ft | 468 kts | 121° |
| 2026-05-08 06:48 | -34.82063 | 133.31175 | 37526 ft | 469 kts | 121° |
| 2026-05-08 06:49 | -34.85464 | 133.37943 | 37538 ft | 468 kts | 121° |
| 2026-05-08 06:49 | -34.88853 | 133.44695 | 37534 ft | 466 kts | 121° |
| 2026-05-08 06:50 | -34.92225 | 133.51422 | 37520 ft | 464 kts | 121° |
| 2026-05-08 06:50 | -34.95579 | 133.58136 | 37531 ft | 463 kts | 121° |
| 2026-05-08 06:51 | -34.98918 | 133.64828 | 37538 ft | 461 kts | 120° |
| 2026-05-08 06:51 | -35.02252 | 133.71519 | 37528 ft | 461 kts | 121° |
| 2026-05-08 06:52 | -35.05577 | 133.78211 | 37518 ft | 462 kts | 121° |
| 2026-05-08 06:52 | -35.08906 | 133.84921 | 37531 ft | 463 kts | 120° |
| 2026-05-08 06:53 | -35.12239 | 133.91653 | 37528 ft | 464 kts | 120° |
| 2026-05-08 06:53 | -35.15571 | 133.98396 | 37532 ft | 463 kts | 120° |
| 2026-05-08 06:54 | -35.18896 | 134.05138 | 37532 ft | 462 kts | 120° |
| 2026-05-08 06:54 | -35.22208 | 134.11861 | 37519 ft | 461 kts | 120° |
| 2026-05-08 06:55 | -35.25507 | 134.18579 | 37525 ft | 460 kts | 120° |
| 2026-05-08 06:55 | -35.28797 | 134.25290 | 37535 ft | 459 kts | 120° |
| 2026-05-08 06:56 | -35.32078 | 134.31993 | 37523 ft | 459 kts | 120° |
| 2026-05-08 06:56 | -35.35328 | 134.38646 | 37520 ft | 458 kts | 120° |
| 2026-05-08 06:57 | -35.38595 | 134.45345 | 37512 ft | 458 kts | 120° |
| 2026-05-08 06:57 | -35.41856 | 134.52050 | 37523 ft | 458 kts | 120° |
| 2026-05-08 06:58 | -35.45120 | 134.58769 | 37521 ft | 459 kts | 120° |
| 2026-05-08 06:58 | -35.48387 | 134.65514 | 37521 ft | 460 kts | 120° |
| 2026-05-08 06:59 | -35.51655 | 134.72269 | 37514 ft | 460 kts | 120° |
| 2026-05-08 06:59 | -35.54924 | 134.79037 | 37504 ft | 461 kts | 120° |
| 2026-05-08 07:00 | -35.58186 | 134.85810 | 37517 ft | 461 kts | 120° |
| 2026-05-08 07:00 | -35.61444 | 134.92585 | 37510 ft | 461 kts | 120° |
| 2026-05-08 07:01 | -35.64697 | 134.99374 | 37507 ft | 461 kts | 119° |
| 2026-05-08 07:01 | -35.67604 | 135.06378 | 37514 ft | 460 kts | 115° |
| 2026-05-08 07:02 | -35.70387 | 135.13474 | 37514 ft | 460 kts | 115° |
| 2026-05-08 07:02 | -35.73167 | 135.20571 | 37504 ft | 461 kts | 115° |
| 2026-05-08 07:03 | -35.75957 | 135.27661 | 37505 ft | 460 kts | 115° |
| 2026-05-08 07:03 | -35.78726 | 135.34702 | 37505 ft | 460 kts | 115° |
| 2026-05-08 07:04 | -35.81517 | 135.41794 | 37509 ft | 460 kts | 115° |
| 2026-05-08 07:04 | -35.84301 | 135.48886 | 37503 ft | 460 kts | 115° |
| 2026-05-08 07:05 | -35.87079 | 135.55986 | 37494 ft | 459 kts | 115° |
| 2026-05-08 07:05 | -35.89847 | 135.63076 | 37497 ft | 459 kts | 115° |
| 2026-05-08 07:06 | -35.92612 | 135.70174 | 37490 ft | 459 kts | 115° |
| 2026-05-08 07:06 | -35.95381 | 135.77293 | 37484 ft | 461 kts | 115° |
| 2026-05-08 07:07 | -35.98148 | 135.84428 | 37493 ft | 461 kts | 115° |
| 2026-05-08 07:07 | -36.00915 | 135.91580 | 37488 ft | 462 kts | 115° |
| 2026-05-08 07:08 | -36.03689 | 135.98763 | 37497 ft | 464 kts | 115° |
| 2026-05-08 07:08 | -36.06471 | 136.05981 | 37498 ft | 466 kts | 115° |
| 2026-05-08 07:09 | -36.09242 | 136.13189 | 37495 ft | 461 kts | 115° |
| 2026-05-08 07:09 | -36.11969 | 136.20302 | 37477 ft | 456 kts | 115° |
| 2026-05-08 07:10 | -36.14699 | 136.27436 | 37487 ft | 462 kts | 115° |
| 2026-05-08 07:10 | -36.17445 | 136.34624 | 37477 ft | 462 kts | 115° |
| 2026-05-08 07:11 | -36.20188 | 136.41827 | 37469 ft | 463 kts | 115° |
| 2026-05-08 07:11 | -36.22927 | 136.49031 | 37484 ft | 462 kts | 115° |
| 2026-05-08 07:12 | -36.25655 | 136.56227 | 37479 ft | 461 kts | 115° |
| 2026-05-08 07:12 | -36.28377 | 136.63416 | 37472 ft | 460 kts | 115° |
| 2026-05-08 07:13 | -36.31085 | 136.70592 | 37476 ft | 459 kts | 115° |
| 2026-05-08 07:13 | -36.33771 | 136.77723 | 37471 ft | 460 kts | 115° |
| 2026-05-08 07:14 | -36.36473 | 136.84915 | 37474 ft | 461 kts | 115° |
| 2026-05-08 07:14 | -36.39177 | 136.92125 | 37474 ft | 461 kts | 115° |
| 2026-05-08 07:15 | -36.41877 | 136.99342 | 37469 ft | 461 kts | 115° |
| 2026-05-08 07:15 | -36.44574 | 137.06569 | 37469 ft | 461 kts | 115° |
| 2026-05-08 07:16 | -36.47265 | 137.13794 | 37472 ft | 460 kts | 115° |
| 2026-05-08 07:16 | -36.49943 | 137.21007 | 37459 ft | 459 kts | 115° |
| 2026-05-08 07:17 | -36.52615 | 137.28214 | 37457 ft | 459 kts | 115° |
| 2026-05-08 07:17 | -36.55280 | 137.35421 | 37457 ft | 459 kts | 115° |
| 2026-05-08 07:18 | -36.57941 | 137.42634 | 37460 ft | 459 kts | 115° |
| 2026-05-08 07:18 | -36.60600 | 137.49858 | 37453 ft | 459 kts | 115° |
| 2026-05-08 07:19 | -36.63237 | 137.57039 | 37454 ft | 459 kts | 115° |
| 2026-05-08 07:19 | -36.65890 | 137.64281 | 37452 ft | 460 kts | 115° |
| 2026-05-08 07:20 | -36.68539 | 137.71529 | 37450 ft | 460 kts | 115° |
| 2026-05-08 07:20 | -36.71187 | 137.78790 | 37449 ft | 460 kts | 115° |
| 2026-05-08 07:21 | -36.73830 | 137.86057 | 37458 ft | 460 kts | 115° |
| 2026-05-08 07:21 | -36.76041 | 137.92148 | 37450 ft | 460 kts | 115° |
| 2026-05-08 07:22 | -36.78676 | 137.99423 | 37443 ft | 460 kts | 115° |
| 2026-05-08 07:22 | -36.81308 | 138.06706 | 37445 ft | 460 kts | 115° |
| 2026-05-08 07:23 | -36.83933 | 138.13987 | 37445 ft | 460 kts | 115° |
| 2026-05-08 07:23 | -36.86536 | 138.21226 | 37444 ft | 460 kts | 115° |
| 2026-05-08 07:24 | -36.89154 | 138.28521 | 37443 ft | 460 kts | 115° |
| 2026-05-08 07:24 | -36.91768 | 138.35825 | 37435 ft | 461 kts | 115° |
| 2026-05-08 07:25 | -36.94378 | 138.43135 | 37436 ft | 461 kts | 115° |
| 2026-05-08 07:26 | -36.98287 | 138.54115 | 37435 ft | 461 kts | 115° |
| 2026-05-08 07:26 | -37.00887 | 138.61442 | 37430 ft | 461 kts | 115° |
| 2026-05-08 07:27 | -37.03483 | 138.68774 | 37431 ft | 461 kts | 115° |
| 2026-05-08 07:27 | -37.06076 | 138.76114 | 37435 ft | 461 kts | 115° |
| 2026-05-08 07:28 | -37.08661 | 138.83452 | 37425 ft | 461 kts | 115° |
| 2026-05-08 07:28 | -37.11243 | 138.90797 | 37420 ft | 461 kts | 115° |
| 2026-05-08 07:29 | -37.13819 | 138.98144 | 37426 ft | 461 kts | 115° |
| 2026-05-08 07:29 | -37.16391 | 139.05496 | 37418 ft | 461 kts | 115° |
| 2026-05-08 07:30 | -37.18959 | 139.12855 | 37425 ft | 460 kts | 115° |
| 2026-05-08 07:30 | -37.21519 | 139.20212 | 37420 ft | 460 kts | 115° |
| 2026-05-08 07:31 | -37.24073 | 139.27567 | 37415 ft | 460 kts | 115° |
| 2026-05-08 07:31 | -37.26622 | 139.34927 | 37416 ft | 460 kts | 115° |
| 2026-05-08 07:32 | -37.29168 | 139.42295 | 37412 ft | 460 kts | 114° |
| 2026-05-08 07:32 | -37.31692 | 139.49619 | 37409 ft | 460 kts | 115° |
| 2026-05-08 07:33 | -37.34232 | 139.57005 | 37410 ft | 460 kts | 114° |
| 2026-05-08 07:33 | -37.36768 | 139.64400 | 37408 ft | 461 kts | 114° |
| 2026-05-08 07:34 | -37.39300 | 139.71801 | 37412 ft | 461 kts | 114° |
| 2026-05-08 07:34 | -37.41829 | 139.79214 | 37409 ft | 461 kts | 114° |
| 2026-05-08 07:35 | -37.44353 | 139.86628 | 37405 ft | 461 kts | 114° |
| 2026-05-08 07:35 | -37.46872 | 139.94048 | 37403 ft | 461 kts | 114° |
| 2026-05-08 07:36 | -37.49386 | 140.01471 | 37404 ft | 461 kts | 114° |
| 2026-05-08 07:36 | -37.51896 | 140.08898 | 37395 ft | 461 kts | 114° |
| 2026-05-08 07:37 | -37.54397 | 140.16322 | 37399 ft | 460 kts | 114° |
| 2026-05-08 07:37 | -37.56894 | 140.23751 | 37398 ft | 460 kts | 114° |
| 2026-05-08 07:38 | -37.59384 | 140.31179 | 37391 ft | 460 kts | 114° |
| 2026-05-08 07:38 | -37.61868 | 140.38605 | 37390 ft | 459 kts | 114° |
| 2026-05-08 07:39 | -37.64346 | 140.46035 | 37386 ft | 459 kts | 114° |
| 2026-05-08 07:39 | -37.66818 | 140.53465 | 37393 ft | 459 kts | 114° |
| 2026-05-08 07:40 | -37.69286 | 140.60902 | 37380 ft | 459 kts | 114° |
| 2026-05-08 07:40 | -37.71752 | 140.68349 | 37389 ft | 460 kts | 114° |
| 2026-05-08 07:41 | -37.74049 | 140.75887 | 37384 ft | 462 kts | 108° |
| 2026-05-08 07:41 | -37.75335 | 140.83855 | 37384 ft | 465 kts | 99° |
| 2026-05-08 07:42 | -37.75734 | 140.92021 | 37380 ft | 466 kts | 95° |
| 2026-05-08 07:42 | -37.76010 | 141.00157 | 37377 ft | 467 kts | 95° |
| 2026-05-08 07:43 | -37.76305 | 141.08347 | 37373 ft | 467 kts | 95° |
| 2026-05-08 07:43 | -37.76617 | 141.16534 | 37373 ft | 466 kts | 96° |
| 2026-05-08 07:44 | -37.76931 | 141.24720 | 37362 ft | 466 kts | 96° |
| 2026-05-08 07:44 | -37.77240 | 141.32896 | 37363 ft | 466 kts | 95° |
| 2026-05-08 07:45 | -37.77541 | 141.41067 | 37363 ft | 465 kts | 96° |
| 2026-05-08 07:45 | -37.77837 | 141.49236 | 37371 ft | 465 kts | 96° |
| 2026-05-08 07:46 | -37.78126 | 141.57399 | 37360 ft | 465 kts | 95° |
| 2026-05-08 07:46 | -37.78410 | 141.65563 | 37365 ft | 465 kts | 95° |
| 2026-05-08 07:47 | -37.78688 | 141.73728 | 37354 ft | 465 kts | 95° |
| 2026-05-08 07:47 | -37.78961 | 141.81891 | 37366 ft | 465 kts | 95° |
| 2026-05-08 07:48 | -37.79229 | 141.90069 | 37358 ft | 465 kts | 95° |
| 2026-05-08 07:48 | -37.79491 | 141.98246 | 37368 ft | 466 kts | 95° |
| 2026-05-08 07:49 | -37.79747 | 142.06429 | 37368 ft | 466 kts | 95° |
| 2026-05-08 07:49 | -37.79997 | 142.14615 | 37349 ft | 466 kts | 95° |
| 2026-05-08 07:50 | -37.80243 | 142.22799 | 37349 ft | 466 kts | 95° |
| 2026-05-08 07:50 | -37.80482 | 142.30973 | 37354 ft | 465 kts | 96° |
| 2026-05-08 07:51 | -37.80710 | 142.39095 | 37341 ft | 465 kts | 95° |
| 2026-05-08 07:51 | -37.80930 | 142.47267 | 37346 ft | 465 kts | 95° |
| 2026-05-08 07:52 | -37.81144 | 142.55439 | 37354 ft | 465 kts | 95° |
| 2026-05-08 07:52 | -37.81353 | 142.63594 | 37327 ft | 458 kts | 95° |
| 2026-05-08 07:53 | -37.81549 | 142.71530 | 37330 ft | 448 kts | 95° |
| 2026-05-08 07:53 | -37.81644 | 142.75439 | 37220 ft | 442 kts | 95° |
| 2026-05-08 07:53 | -37.81737 | 142.79302 | 36961 ft | 437 kts | 96° |
| 2026-05-08 07:53 | -37.81829 | 142.83132 | 36618 ft | 435 kts | 96° |
| 2026-05-08 07:54 | -37.81919 | 142.86933 | 36262 ft | 430 kts | 96° |
| 2026-05-08 07:54 | -37.82006 | 142.90694 | 35871 ft | 426 kts | 96° |
| 2026-05-08 07:54 | -37.82092 | 142.94420 | 35413 ft | 422 kts | 96° |
| 2026-05-08 07:54 | -37.82175 | 142.98112 | 34978 ft | 419 kts | 96° |
| 2026-05-08 07:55 | -37.82257 | 143.01782 | 34547 ft | 416 kts | 96° |
| 2026-05-08 07:55 | -37.82338 | 143.05421 | 34067 ft | 413 kts | 96° |
| 2026-05-08 07:55 | -37.82416 | 143.09037 | 33576 ft | 410 kts | 96° |
| 2026-05-08 07:55 | -37.82493 | 143.12623 | 33120 ft | 406 kts | 96° |
| 2026-05-08 07:56 | -37.82568 | 143.16181 | 32681 ft | 403 kts | 96° |
| 2026-05-08 07:56 | -37.82642 | 143.19708 | 32240 ft | 399 kts | 96° |
| 2026-05-08 07:56 | -37.82713 | 143.23205 | 31804 ft | 396 kts | 96° |
| 2026-05-08 07:56 | -37.82784 | 143.26679 | 31393 ft | 394 kts | 96° |
| 2026-05-08 07:57 | -37.82853 | 143.30129 | 30965 ft | 391 kts | 96° |
| 2026-05-08 07:57 | -37.82920 | 143.33558 | 30544 ft | 389 kts | 96° |
| 2026-05-08 07:57 | -37.82986 | 143.36964 | 30073 ft | 387 kts | 96° |
| 2026-05-08 07:57 | -37.83051 | 143.40355 | 29604 ft | 384 kts | 96° |
| 2026-05-08 07:58 | -37.83115 | 143.43715 | 29170 ft | 380 kts | 96° |
| 2026-05-08 07:58 | -37.83176 | 143.47046 | 28731 ft | 377 kts | 96° |
| 2026-05-08 07:58 | -37.83237 | 143.50348 | 28329 ft | 374 kts | 96° |
| 2026-05-08 07:58 | -37.83295 | 143.53629 | 27905 ft | 372 kts | 96° |
| 2026-05-08 07:59 | -37.83353 | 143.56887 | 27487 ft | 369 kts | 96° |
| 2026-05-08 07:59 | -37.83409 | 143.60124 | 27077 ft | 367 kts | 96° |
| 2026-05-08 07:59 | -37.83465 | 143.63340 | 26664 ft | 365 kts | 96° |
| 2026-05-08 07:59 | -37.83518 | 143.66538 | 26270 ft | 363 kts | 96° |
| 2026-05-08 08:00 | -37.83571 | 143.69723 | 25866 ft | 361 kts | 96° |
| 2026-05-08 08:00 | -37.83623 | 143.72891 | 25468 ft | 359 kts | 96° |
| 2026-05-08 08:00 | -37.83673 | 143.76046 | 25078 ft | 358 kts | 96° |
| 2026-05-08 08:00 | -37.83724 | 143.79193 | 24678 ft | 357 kts | 96° |
| 2026-05-08 08:01 | -37.83773 | 143.82330 | 24278 ft | 357 kts | 95° |
| 2026-05-08 08:01 | -37.83821 | 143.85466 | 23871 ft | 357 kts | 95° |
| 2026-05-08 08:01 | -37.83868 | 143.88600 | 23397 ft | 356 kts | 95° |
| 2026-05-08 08:01 | -37.83914 | 143.91725 | 22967 ft | 355 kts | 95° |
| 2026-05-08 08:02 | -37.83959 | 143.94836 | 22553 ft | 353 kts | 95° |
| 2026-05-08 08:02 | -37.83995 | 143.97889 | 22155 ft | 351 kts | 93° |
| 2026-05-08 08:02 | -37.83811 | 144.00973 | 21766 ft | 352 kts | 87° |
| 2026-05-08 08:02 | -37.83449 | 144.04040 | 21372 ft | 352 kts | 85° |
| 2026-05-08 08:03 | -37.83045 | 144.07085 | 20990 ft | 350 kts | 84° |
| 2026-05-08 08:03 | -37.82648 | 144.10118 | 20572 ft | 350 kts | 85° |
| 2026-05-08 08:03 | -37.82261 | 144.13182 | 19917 ft | 357 kts | 85° |
| 2026-05-08 08:03 | -37.81880 | 144.16322 | 19248 ft | 365 kts | 85° |
| 2026-05-08 08:04 | -37.81502 | 144.19493 | 18863 ft | 363 kts | 85° |
| 2026-05-08 08:04 | -37.81131 | 144.22621 | 18594 ft | 357 kts | 85° |
| 2026-05-08 08:04 | -37.80768 | 144.25706 | 18262 ft | 353 kts | 85° |
| 2026-05-08 08:04 | -37.80410 | 144.28764 | 17861 ft | 351 kts | 85° |
| 2026-05-08 08:05 | -37.80053 | 144.31814 | 17428 ft | 350 kts | 85° |
| 2026-05-08 08:05 | -37.79698 | 144.34846 | 17028 ft | 348 kts | 86° |
| 2026-05-08 08:05 | -37.79343 | 144.37862 | 16646 ft | 346 kts | 86° |
| 2026-05-08 08:05 | -37.78989 | 144.40859 | 16258 ft | 344 kts | 86° |
| 2026-05-08 08:06 | -37.78636 | 144.43838 | 15861 ft | 342 kts | 86° |
| 2026-05-08 08:06 | -37.78277 | 144.46810 | 15463 ft | 342 kts | 85° |
| 2026-05-08 08:06 | -37.77902 | 144.49772 | 15096 ft | 340 kts | 85° |
| 2026-05-08 08:06 | -37.77524 | 144.52711 | 14809 ft | 336 kts | 85° |
| 2026-05-08 08:07 | -37.77151 | 144.55616 | 14466 ft | 334 kts | 85° |
| 2026-05-08 08:07 | -37.76779 | 144.58514 | 14093 ft | 333 kts | 86° |
| 2026-05-08 08:07 | -37.76410 | 144.61399 | 13674 ft | 333 kts | 86° |
| 2026-05-08 08:07 | -37.76040 | 144.64284 | 13270 ft | 331 kts | 86° |
| 2026-05-08 08:08 | -37.75672 | 144.67149 | 12881 ft | 330 kts | 85° |
| 2026-05-08 08:08 | -37.75304 | 144.70016 | 12349 ft | 333 kts | 85° |
| 2026-05-08 08:08 | -37.74932 | 144.72924 | 11834 ft | 336 kts | 85° |
| 2026-05-08 08:08 | -37.74682 | 144.74855 | 11566 ft | 336 kts | 85° |
| 2026-05-08 08:09 | -37.74305 | 144.77761 | 11175 ft | 335 kts | 85° |
| 2026-05-08 08:09 | -37.73819 | 144.81609 | 10619 ft | 335 kts | 86° |
| 2026-05-08 08:09 | -37.73578 | 144.83571 | 10380 ft | 333 kts | 86° |
| 2026-05-08 08:09 | -37.73226 | 144.86415 | 10229 ft | 321 kts | 86° |
| 2026-05-08 08:10 | -37.72888 | 144.89117 | 10062 ft | 301 kts | 86° |
| 2026-05-08 08:10 | -37.72564 | 144.91644 | 9933 ft | 283 kts | 84° |
| 2026-05-08 08:10 | -37.71813 | 144.93908 | 9606 ft | 284 kts | 54° |
| 2026-05-08 08:10 | -37.70252 | 144.95490 | 9364 ft | 299 kts | 24° |
| 2026-05-08 08:11 | -37.68207 | 144.96120 | 9045 ft | 306 kts | 358° |
| 2026-05-08 08:11 | -37.66099 | 144.95977 | 8724 ft | 303 kts | 353° |
| 2026-05-08 08:11 | -37.63995 | 144.95779 | 8385 ft | 303 kts | 353° |
| 2026-05-08 08:11 | -37.61896 | 144.95597 | 8060 ft | 302 kts | 353° |
| 2026-05-08 08:12 | -37.59802 | 144.95431 | 7730 ft | 301 kts | 354° |
| 2026-05-08 08:12 | -37.57718 | 144.95273 | 7408 ft | 298 kts | 354° |
| 2026-05-08 08:12 | -37.55684 | 144.95123 | 7116 ft | 286 kts | 354° |
| 2026-05-08 08:12 | -37.53758 | 144.94992 | 6975 ft | 269 kts | 354° |
| 2026-05-08 08:13 | -37.51931 | 144.94868 | 6664 ft | 260 kts | 354° |
| 2026-05-08 08:13 | -37.50132 | 144.94744 | 6221 ft | 256 kts | 354° |
| 2026-05-08 08:13 | -37.48397 | 144.94546 | 5919 ft | 244 kts | 340° |
| 2026-05-08 08:13 | -37.46922 | 144.93571 | 5687 ft | 238 kts | 312° |
| 2026-05-08 08:14 | -37.45863 | 144.92008 | 5431 ft | 231 kts | 292° |
| 2026-05-08 08:14 | -37.45219 | 144.90238 | 5329 ft | 215 kts | 281° |
| 2026-05-08 08:14 | -37.44969 | 144.88493 | 5186 ft | 195 kts | 259° |
| 2026-05-08 08:14 | -37.45149 | 144.86855 | 5043 ft | 183 kts | 253° |
| 2026-05-08 08:15 | -37.45383 | 144.85318 | 4780 ft | 179 kts | 252° |
| 2026-05-08 08:15 | -37.45612 | 144.83816 | 4558 ft | 171 kts | 252° |
| 2026-05-08 08:15 | -37.45836 | 144.82373 | 4340 ft | 165 kts | 249° |
| 2026-05-08 08:15 | -37.46358 | 144.81165 | 4144 ft | 156 kts | 221° |
| 2026-05-08 08:16 | -37.47313 | 144.80561 | 3937 ft | 160 kts | 185° |
| 2026-05-08 08:16 | -37.48431 | 144.80626 | 3737 ft | 160 kts | 183° |
| 2026-05-08 08:16 | -37.49540 | 144.80668 | 3481 ft | 157 kts | 181° |
| 2026-05-08 08:16 | -37.50614 | 144.80789 | 3389 ft | 154 kts | 178° |
| 2026-05-08 08:17 | -37.51705 | 144.80963 | 3183 ft | 158 kts | 176° |
| 2026-05-08 08:17 | -37.52779 | 144.81154 | 2964 ft | 154 kts | 175° |
| 2026-05-08 08:17 | -37.53810 | 144.81345 | 2757 ft | 145 kts | 176° |
| 2026-05-08 08:17 | -37.54767 | 144.81525 | 2562 ft | 135 kts | 175° |
| 2026-05-08 08:18 | -37.55683 | 144.81695 | 2414 ft | 131 kts | 176° |
| 2026-05-08 08:18 | -37.56578 | 144.81861 | 2246 ft | 130 kts | 175° |
| 2026-05-08 08:18 | -37.57484 | 144.82031 | 2072 ft | 132 kts | 175° |
| 2026-05-08 08:18 | -37.58393 | 144.82199 | 1853 ft | 131 kts | 175° |
| 2026-05-08 08:19 | -37.59305 | 144.82370 | 1702 ft | 135 kts | 176° |
| 2026-05-08 08:19 | -37.60243 | 144.82544 | 1482 ft | 136 kts | 174° |
| 2026-05-08 08:19 | -37.61187 | 144.82721 | 1308 ft | 139 kts | 174° |
| 2026-05-08 08:19 | -37.62142 | 144.82899 | 1105 ft | 142 kts | 174° |
| 2026-05-08 08:20 | -37.63097 | 144.83078 | 914 ft | 136 kts | 173° |
| 2026-05-08 08:20 | -37.64023 | 144.83253 | 717 ft | 136 kts | 175° |
| 2026-05-08 08:20 | -37.64963 | 144.83421 | 569 ft | 136 kts | 173° |
| 2026-05-08 08:20 | -37.65910 | 144.83604 | 426 ft | 134 kts | 175° |
| 2026-05-08 08:21 | -37.66704 | 144.83743 | 401 ft | 93 kts | 170° |
| 2026-05-08 08:21 | -37.67295 | 144.83852 | 380 ft | 75 kts | 171° |
| 2026-05-08 08:21 | -37.67685 | 144.83929 | 367 ft | 44 kts | 171° |
| 2026-05-08 08:21 | -37.67858 | 144.84009 | 369 ft | 22 kts | 123° |
| 2026-05-08 08:22 | -37.67873 | 144.84092 | 368 ft | 0 kts | 87° |
| 2026-05-08 08:25 | -37.67873 | 144.84097 | 368 ft | 2 kts | 87° |
| 2026-05-08 08:25 | -37.67871 | 144.84127 | 369 ft | 6 kts | 86° |
| 2026-05-08 08:25 | -37.67864 | 144.84194 | 367 ft | 10 kts | 82° |
| 2026-05-08 08:25 | -37.67849 | 144.84282 | 370 ft | 10 kts | 68° |
| 2026-05-08 08:26 | -37.67821 | 144.84335 | 373 ft | 0 kts | 47° |
| 2026-05-08 08:26 | -37.67820 | 144.84335 | 373 ft | 0 kts | 47° |
| 2026-05-08 08:26 | -37.67769 | 144.84367 | 376 ft | 16 kts | 7° |
| 2026-05-08 08:26 | -37.67663 | 144.84355 | 376 ft | 15 kts | 351° |
| 2026-05-08 08:27 | -37.67557 | 144.84335 | 378 ft | 15 kts | 351° |
| 2026-05-08 08:27 | -37.67451 | 144.84315 | 381 ft | 15 kts | 353° |
| 2026-05-08 08:27 | -37.67345 | 144.84297 | 384 ft | 15 kts | 352° |